<?xml version="1.0" encoding="UTF-8" standalone="no" ?>
<gpx xmlns="http://www.topografix.com/GPX/1/1" xmlns:xsi="http://www.w3.org/2001/XMLSchema-instance" xsi:schemaLocation="http://www.topografix.com/GPX/1/1 http://www.topografix.com/GPX/1/1/gpx.xsd" version="1.1" creator="VisuGPX - https://www.visugpx.com">
  <metadata>
    <name>JOUR 1 - GR®861 Via Garona (2021)</name>
    <desc><![CDATA[Randonnée sur le GR®861 Via Garona à travers la Haute-Garonne de St-Bertrand-de-Comminges à Toulouse]]></desc>
  </metadata>
  <trk>
    <name><![CDATA[GR®861 Via Garona (2021)]]></name>
    <desc><![CDATA[Randonnée sur le GR®861 Via Garona à travers la Haute-Garonne de Toulouse à St-Bertrand-de-Comminges. Gîtes d'étapes, Chambres d'hôtes, Maison d'hôtes, Hôtels, Camping, Refuges, Auberges, Commerces.]]></desc>
    <extensions>
      <line xmlns="http://www.topografix.com/GPX/gpx_style/0/2">
        <color>0000FF</color>
        <width>4</width>
      </line>
    </extensions>
    <trkseg>
      <trkpt lat="43.0274" lon="0.57121">
        <ele>509.171</ele>
        <time>2021-05-14T22:45:22Z</time>
      </trkpt>
      <trkpt lat="43.0274" lon="0.57121">
        <ele>509.171</ele>
        <time>2021-05-14T22:45:22Z</time>
      </trkpt>
      <trkpt lat="43.02709" lon="0.57172">
        <ele>509.808</ele>
        <time>2021-05-14T22:45:02Z</time>
      </trkpt>
      <trkpt lat="43.02685" lon="0.57233">
        <ele>504.222</ele>
        <time>2021-05-14T22:44:42Z</time>
      </trkpt>
      <trkpt lat="43.02682" lon="0.57271">
        <ele>496.902</ele>
        <time>2021-05-14T22:44:22Z</time>
      </trkpt>
      <trkpt lat="43.02667" lon="0.57302">
        <ele>482.349</ele>
        <time>2021-05-14T22:44:02Z</time>
      </trkpt>
      <trkpt lat="43.02685" lon="0.57311">
        <ele>481.135</ele>
        <time>2021-05-14T22:43:42Z</time>
      </trkpt>
      <trkpt lat="43.02721" lon="0.57304">
        <ele>483.821</ele>
        <time>2021-05-14T22:43:22Z</time>
      </trkpt>
      <trkpt lat="43.02719" lon="0.57314">
        <ele>479.07</ele>
        <time>2021-05-14T22:43:02Z</time>
      </trkpt>
      <trkpt lat="43.0268" lon="0.57334">
        <ele>469.885</ele>
        <time>2021-05-14T22:42:42Z</time>
      </trkpt>
      <trkpt lat="43.02698" lon="0.57345">
        <ele>468.441</ele>
        <time>2021-05-14T22:42:22Z</time>
      </trkpt>
      <trkpt lat="43.027" lon="0.57368">
        <ele>464.755</ele>
        <time>2021-05-14T22:42:02Z</time>
      </trkpt>
      <trkpt lat="43.02668" lon="0.57368">
        <ele>465.028</ele>
        <time>2021-05-14T22:41:42Z</time>
      </trkpt>
      <trkpt lat="43.02649" lon="0.57375">
        <ele>465.083</ele>
        <time>2021-05-14T22:41:22Z</time>
      </trkpt>
      <trkpt lat="43.02648" lon="0.57408">
        <ele>464.308</ele>
        <time>2021-05-14T22:41:02Z</time>
      </trkpt>
      <trkpt lat="43.0266" lon="0.57423">
        <ele>464.021</ele>
        <time>2021-05-14T22:40:42Z</time>
      </trkpt>
      <trkpt lat="43.02668" lon="0.57473">
        <ele>464.029</ele>
        <time>2021-05-14T22:40:22Z</time>
      </trkpt>
      <trkpt lat="43.02691" lon="0.5747">
        <ele>463.266</ele>
        <time>2021-05-14T22:40:02Z</time>
      </trkpt>
      <trkpt lat="43.02694" lon="0.5752">
        <ele>463.095</ele>
        <time>2021-05-14T22:39:42Z</time>
      </trkpt>
      <trkpt lat="43.02729" lon="0.5757">
        <ele>461.911</ele>
        <time>2021-05-14T22:39:22Z</time>
      </trkpt>
      <trkpt lat="43.02739" lon="0.5762">
        <ele>461.11</ele>
        <time>2021-05-14T22:39:02Z</time>
      </trkpt>
      <trkpt lat="43.02727" lon="0.57632">
        <ele>461.155</ele>
        <time>2021-05-14T22:38:42Z</time>
      </trkpt>
      <trkpt lat="43.0275" lon="0.5769">
        <ele>460.061</ele>
        <time>2021-05-14T22:38:22Z</time>
      </trkpt>
      <trkpt lat="43.0277" lon="0.5771">
        <ele>460.095</ele>
        <time>2021-05-14T22:38:02Z</time>
      </trkpt>
      <trkpt lat="43.02795" lon="0.57745">
        <ele>460.058</ele>
        <time>2021-05-14T22:37:42Z</time>
      </trkpt>
      <trkpt lat="43.02824" lon="0.57767">
        <ele>460.023</ele>
        <time>2021-05-14T22:37:22Z</time>
      </trkpt>
      <trkpt lat="43.02809" lon="0.57885">
        <ele>459.908</ele>
        <time>2021-05-14T22:37:02Z</time>
      </trkpt>
      <trkpt lat="43.02845" lon="0.58053">
        <ele>457.616</ele>
        <time>2021-05-14T22:36:42Z</time>
      </trkpt>
      <trkpt lat="43.0288" lon="0.58235">
        <ele>457.706</ele>
        <time>2021-05-14T22:36:22Z</time>
      </trkpt>
      <trkpt lat="43.02797" lon="0.58357">
        <ele>459.364</ele>
        <time>2021-05-14T22:36:02Z</time>
      </trkpt>
      <trkpt lat="43.0283" lon="0.58433">
        <ele>459.061</ele>
        <time>2021-05-14T22:35:42Z</time>
      </trkpt>
      <trkpt lat="43.02875" lon="0.58455">
        <ele>459.097</ele>
        <time>2021-05-14T22:35:22Z</time>
      </trkpt>
      <trkpt lat="43.03073" lon="0.5847">
        <ele>456.456</ele>
        <time>2020-06-02T04:46:40Z</time>
      </trkpt>
      <trkpt lat="43.03069" lon="0.58694">
        <ele>457.531</ele>
        <time>2020-06-02T04:46:20Z</time>
      </trkpt>
      <trkpt lat="43.03079" lon="0.58791">
        <ele>458.087</ele>
        <time>2020-06-02T04:46:00Z</time>
      </trkpt>
      <trkpt lat="43.0307" lon="0.58974">
        <ele>458.061</ele>
        <time>2020-06-02T04:45:40Z</time>
      </trkpt>
      <trkpt lat="43.03164" lon="0.59023">
        <ele>459.844</ele>
        <time>2020-06-02T04:45:20Z</time>
      </trkpt>
      <trkpt lat="43.03236" lon="0.59028">
        <ele>460.019</ele>
        <time>2020-06-02T04:45:00Z</time>
      </trkpt>
      <trkpt lat="43.0331" lon="0.59086">
        <ele>456.708</ele>
        <time>2020-06-02T04:44:40Z</time>
      </trkpt>
      <trkpt lat="43.03377" lon="0.59153">
        <ele>450.308</ele>
        <time>2020-06-02T04:44:20Z</time>
      </trkpt>
      <trkpt lat="43.03312" lon="0.59365">
        <ele>448.626</ele>
        <time>2020-06-02T04:43:40Z</time>
      </trkpt>
      <trkpt lat="43.03407" lon="0.59348">
        <ele>446.425</ele>
        <time>2020-06-02T04:43:20Z</time>
      </trkpt>
      <trkpt lat="43.03482" lon="0.59305">
        <ele>438.016</ele>
        <time>2020-06-02T04:43:00Z</time>
      </trkpt>
      <trkpt lat="43.03574" lon="0.59332">
        <ele>437.622</ele>
        <time>2020-06-02T04:42:40Z</time>
      </trkpt>
      <trkpt lat="43.03804" lon="0.59285">
        <ele>464.981</ele>
        <time>2020-06-02T04:41:40Z</time>
      </trkpt>
      <trkpt lat="43.03803" lon="0.59194">
        <ele>464.916</ele>
        <time>2021-05-14T22:30:42Z</time>
      </trkpt>
      <trkpt lat="43.03811" lon="0.59053">
        <ele>465.042</ele>
        <time>2020-06-02T04:41:20Z</time>
      </trkpt>
      <trkpt lat="43.03811" lon="0.58929">
        <ele>465.086</ele>
        <time>2020-06-02T04:41:00Z</time>
      </trkpt>
      <trkpt lat="43.03743" lon="0.58773">
        <ele>462.499</ele>
        <time>2020-06-02T04:40:40Z</time>
      </trkpt>
      <trkpt lat="43.03735" lon="0.58678">
        <ele>458.464</ele>
        <time>2020-06-02T04:40:20Z</time>
      </trkpt>
      <trkpt lat="43.03752" lon="0.58464">
        <ele>455.008</ele>
        <time>2020-06-02T04:40:00Z</time>
      </trkpt>
      <trkpt lat="43.03785" lon="0.58279">
        <ele>449.027</ele>
        <time>2020-06-02T04:39:40Z</time>
      </trkpt>
      <trkpt lat="43.03805" lon="0.58231">
        <ele>449.061</ele>
        <time>2020-06-02T04:39:20Z</time>
      </trkpt>
      <trkpt lat="43.03815" lon="0.58173">
        <ele>449.377</ele>
        <time>2020-06-02T04:39:00Z</time>
      </trkpt>
      <trkpt lat="43.03842" lon="0.58087">
        <ele>452.567</ele>
        <time>2020-06-02T04:38:40Z</time>
      </trkpt>
      <trkpt lat="43.03838" lon="0.57994">
        <ele>456.273</ele>
        <time>2020-06-02T04:38:20Z</time>
      </trkpt>
      <trkpt lat="43.03824" lon="0.57766">
        <ele>469.942</ele>
        <time>2020-06-02T04:38:00Z</time>
      </trkpt>
      <trkpt lat="43.03838" lon="0.57638">
        <ele>473.227</ele>
        <time>2020-06-02T04:37:40Z</time>
      </trkpt>
      <trkpt lat="43.03861" lon="0.57584">
        <ele>474.173</ele>
        <time>2020-06-02T04:37:20Z</time>
      </trkpt>
      <trkpt lat="43.0388" lon="0.57518">
        <ele>473.717</ele>
        <time>2020-06-02T04:37:00Z</time>
      </trkpt>
      <trkpt lat="43.0389" lon="0.5745">
        <ele>470.61</ele>
        <time>2020-06-02T04:36:40Z</time>
      </trkpt>
      <trkpt lat="43.03921" lon="0.57351">
        <ele>468.185</ele>
        <time>2020-06-02T04:36:20Z</time>
      </trkpt>
      <trkpt lat="43.03954" lon="0.57304">
        <ele>469.408</ele>
        <time>2020-06-02T04:36:00Z</time>
      </trkpt>
      <trkpt lat="43.03956" lon="0.57272">
        <ele>469.017</ele>
        <time>2020-06-02T04:35:40Z</time>
      </trkpt>
      <trkpt lat="43.03942" lon="0.57161">
        <ele>464.743</ele>
        <time>2020-06-02T04:35:20Z</time>
      </trkpt>
      <trkpt lat="43.03953" lon="0.57079">
        <ele>464.482</ele>
        <time>2020-06-02T04:35:00Z</time>
      </trkpt>
      <trkpt lat="43.03988" lon="0.57006">
        <ele>454.817</ele>
        <time>2020-06-02T04:34:40Z</time>
      </trkpt>
      <trkpt lat="43.0401" lon="0.56952">
        <ele>449.383</ele>
        <time>2020-06-02T04:34:20Z</time>
      </trkpt>
      <trkpt lat="43.04081" lon="0.56909">
        <ele>448.742</ele>
        <time>2020-06-02T04:34:00Z</time>
      </trkpt>
      <trkpt lat="43.0413" lon="0.56906">
        <ele>448.617</ele>
        <time>2020-06-02T04:33:40Z</time>
      </trkpt>
      <trkpt lat="43.04202" lon="0.56878">
        <ele>448.283</ele>
        <time>2020-06-02T04:33:20Z</time>
      </trkpt>
      <trkpt lat="43.04266" lon="0.5684">
        <ele>448.067</ele>
        <time>2020-06-02T04:33:00Z</time>
      </trkpt>
      <trkpt lat="43.0431" lon="0.56819">
        <ele>447.51</ele>
        <time>2020-06-02T04:32:40Z</time>
      </trkpt>
      <trkpt lat="43.0435" lon="0.56787">
        <ele>447.075</ele>
        <time>2020-06-02T04:32:20Z</time>
      </trkpt>
      <trkpt lat="43.04403" lon="0.56732">
        <ele>446.308</ele>
        <time>2020-06-02T04:32:00Z</time>
      </trkpt>
      <trkpt lat="43.0449" lon="0.56689">
        <ele>446.017</ele>
        <time>2020-06-02T04:31:40Z</time>
      </trkpt>
      <trkpt lat="43.04545" lon="0.56676">
        <ele>446.061</ele>
        <time>2020-06-02T04:31:20Z</time>
      </trkpt>
      <trkpt lat="43.04614" lon="0.56666">
        <ele>446.081</ele>
        <time>2020-06-02T04:31:00Z</time>
      </trkpt>
      <trkpt lat="43.04625" lon="0.56752">
        <ele>447.078</ele>
        <time>2020-06-02T04:30:40Z</time>
      </trkpt>
      <trkpt lat="43.04653" lon="0.56885">
        <ele>449.084</ele>
        <time>2020-06-02T04:30:20Z</time>
      </trkpt>
      <trkpt lat="43.04698" lon="0.5684">
        <ele>449.143</ele>
        <time>2020-06-02T04:30:00Z</time>
      </trkpt>
      <trkpt lat="43.04823" lon="0.56786">
        <ele>449.098</ele>
        <time>2020-06-02T04:29:40Z</time>
      </trkpt>
      <trkpt lat="43.04901" lon="0.56758">
        <ele>448.364</ele>
        <time>2020-06-02T04:29:20Z</time>
      </trkpt>
      <trkpt lat="43.04983" lon="0.56754">
        <ele>447.738</ele>
        <time>2020-06-02T04:29:00Z</time>
      </trkpt>
      <trkpt lat="43.05089" lon="0.56736">
        <ele>446.951</ele>
        <time>2020-06-02T04:28:40Z</time>
      </trkpt>
      <trkpt lat="43.05147" lon="0.56748">
        <ele>445.646</ele>
        <time>2020-06-02T04:28:20Z</time>
      </trkpt>
      <trkpt lat="43.05206" lon="0.56778">
        <ele>445.008</ele>
        <time>2020-06-02T04:28:00Z</time>
      </trkpt>
      <trkpt lat="43.0523" lon="0.56819">
        <ele>445.521</ele>
        <time>2020-06-02T04:27:40Z</time>
      </trkpt>
      <trkpt lat="43.05257" lon="0.56767">
        <ele>444.265</ele>
        <time>2020-06-02T04:27:20Z</time>
      </trkpt>
      <trkpt lat="43.05294" lon="0.56717">
        <ele>443.893</ele>
        <time>2020-06-02T04:27:00Z</time>
      </trkpt>
      <trkpt lat="43.05304" lon="0.56651">
        <ele>441.583</ele>
        <time>2020-06-02T04:26:40Z</time>
      </trkpt>
      <trkpt lat="43.05325" lon="0.5661">
        <ele>440.399</ele>
        <time>2020-06-02T04:26:20Z</time>
      </trkpt>
      <trkpt lat="43.05444" lon="0.56477">
        <ele>438.068</ele>
        <time>2020-06-02T04:26:00Z</time>
      </trkpt>
      <trkpt lat="43.0556" lon="0.56378">
        <ele>435.023</ele>
        <time>2020-06-02T04:25:40Z</time>
      </trkpt>
      <trkpt lat="43.05608" lon="0.56482">
        <ele>441.199</ele>
        <time>2020-06-02T04:25:20Z</time>
      </trkpt>
      <trkpt lat="43.05639" lon="0.56474">
        <ele>445.483</ele>
        <time>2020-06-02T04:25:00Z</time>
      </trkpt>
      <trkpt lat="43.05693" lon="0.56478">
        <ele>451.546</ele>
        <time>2020-06-02T04:24:40Z</time>
      </trkpt>
      <trkpt lat="43.05829" lon="0.56468">
        <ele>460.931</ele>
        <time>2020-06-02T04:24:20Z</time>
      </trkpt>
      <trkpt lat="43.05896" lon="0.56464">
        <ele>467.308</ele>
        <time>2020-06-02T04:24:00Z</time>
      </trkpt>
      <trkpt lat="43.05956" lon="0.56444">
        <ele>469.522</ele>
        <time>2020-06-02T04:23:40Z</time>
      </trkpt>
      <trkpt lat="43.06027" lon="0.56423">
        <ele>479.302</ele>
        <time>2020-06-02T04:23:20Z</time>
      </trkpt>
      <trkpt lat="43.06034" lon="0.56382">
        <ele>475.849</ele>
        <time>2020-06-02T04:23:00Z</time>
      </trkpt>
      <trkpt lat="43.06052" lon="0.5638">
        <ele>478.733</ele>
        <time>2020-06-02T04:22:40Z</time>
      </trkpt>
      <trkpt lat="43.06057" lon="0.56355">
        <ele>475.239</ele>
        <time>2020-06-02T04:22:20Z</time>
      </trkpt>
      <trkpt lat="43.06148" lon="0.56329">
        <ele>477.948</ele>
        <time>2020-06-02T04:22:00Z</time>
      </trkpt>
      <trkpt lat="43.0615" lon="0.56305">
        <ele>472.443</ele>
        <time>2020-06-02T04:21:40Z</time>
      </trkpt>
      <trkpt lat="43.0619" lon="0.56297">
        <ele>476.499</ele>
        <time>2020-06-02T04:21:20Z</time>
      </trkpt>
      <trkpt lat="43.06238" lon="0.56264">
        <ele>480.463</ele>
        <time>2020-06-02T04:21:00Z</time>
      </trkpt>
      <trkpt lat="43.06326" lon="0.56137">
        <ele>481.236</ele>
        <time>2020-06-02T04:20:40Z</time>
      </trkpt>
      <trkpt lat="43.06385" lon="0.56088">
        <ele>480.971</ele>
        <time>2020-06-02T04:20:20Z</time>
      </trkpt>
      <trkpt lat="43.06427" lon="0.55993">
        <ele>474.108</ele>
        <time>2020-06-02T04:20:00Z</time>
      </trkpt>
      <trkpt lat="43.06457" lon="0.55979">
        <ele>477.914</ele>
        <time>2020-06-02T04:19:40Z</time>
      </trkpt>
      <trkpt lat="43.06486" lon="0.56001">
        <ele>478.622</ele>
        <time>2020-06-02T04:19:20Z</time>
      </trkpt>
      <trkpt lat="43.06516" lon="0.56053">
        <ele>478.242</ele>
        <time>2020-06-02T04:19:00Z</time>
      </trkpt>
      <trkpt lat="43.06541" lon="0.56083">
        <ele>477.152</ele>
        <time>2020-06-02T04:18:40Z</time>
      </trkpt>
      <trkpt lat="43.06602" lon="0.56161">
        <ele>474.628</ele>
        <time>2020-06-02T04:18:20Z</time>
      </trkpt>
      <trkpt lat="43.06628" lon="0.56158">
        <ele>470.517</ele>
        <time>2020-06-02T04:18:00Z</time>
      </trkpt>
      <trkpt lat="43.06656" lon="0.56172">
        <ele>467.072</ele>
        <time>2020-06-02T04:17:40Z</time>
      </trkpt>
      <trkpt lat="43.06696" lon="0.56209">
        <ele>462.858</ele>
        <time>2020-06-02T04:17:20Z</time>
      </trkpt>
      <trkpt lat="43.06748" lon="0.5624">
        <ele>455.972</ele>
        <time>2020-06-02T04:17:00Z</time>
      </trkpt>
      <trkpt lat="43.06803" lon="0.56281">
        <ele>452.415</ele>
        <time>2020-06-02T04:16:40Z</time>
      </trkpt>
      <trkpt lat="43.0682" lon="0.56307">
        <ele>451.03</ele>
        <time>2020-06-02T04:16:20Z</time>
      </trkpt>
      <trkpt lat="43.06827" lon="0.56361">
        <ele>451.708</ele>
        <time>2020-06-02T04:16:00Z</time>
      </trkpt>
      <trkpt lat="43.06813" lon="0.56413">
        <ele>453.918</ele>
        <time>2021-05-14T22:04:42Z</time>
      </trkpt>
      <trkpt lat="43.06818" lon="0.56439">
        <ele>454.817</ele>
        <time>2020-06-02T04:15:40Z</time>
      </trkpt>
      <trkpt lat="43.06871" lon="0.56325">
        <ele>448.236</ele>
        <time>2020-06-02T04:15:20Z</time>
      </trkpt>
      <trkpt lat="43.06871" lon="0.56293">
        <ele>441.892</ele>
        <time>2020-06-02T04:15:00Z</time>
      </trkpt>
      <trkpt lat="43.06883" lon="0.56288">
        <ele>440.978</ele>
        <time>2020-06-02T04:14:40Z</time>
      </trkpt>
      <trkpt lat="43.06927" lon="0.56236">
        <ele>438.397</ele>
        <time>2020-06-02T04:14:20Z</time>
      </trkpt>
      <trkpt lat="43.06952" lon="0.56218">
        <ele>435.992</ele>
        <time>2020-06-02T04:14:00Z</time>
      </trkpt>
      <trkpt lat="43.07021" lon="0.56223">
        <ele>434.388</ele>
        <time>2020-06-02T04:13:40Z</time>
      </trkpt>
      <trkpt lat="43.07128" lon="0.56243">
        <ele>427.222</ele>
        <time>2020-06-02T04:13:20Z</time>
      </trkpt>
      <trkpt lat="43.07222" lon="0.56245">
        <ele>422.385</ele>
        <time>2020-06-02T04:13:00Z</time>
      </trkpt>
      <trkpt lat="43.07239" lon="0.56249">
        <ele>421.72</ele>
        <time>2020-06-02T04:12:40Z</time>
      </trkpt>
      <trkpt lat="43.07291" lon="0.56286">
        <ele>425.608</ele>
        <time>2020-06-02T04:12:20Z</time>
      </trkpt>
      <trkpt lat="43.07338" lon="0.56333">
        <ele>425.011</ele>
        <time>2020-06-02T04:12:00Z</time>
      </trkpt>
      <trkpt lat="43.07367" lon="0.56373">
        <ele>425.492</ele>
        <time>2020-06-02T04:11:40Z</time>
      </trkpt>
      <trkpt lat="43.07396" lon="0.56416">
        <ele>424.632</ele>
        <time>2020-06-02T04:11:20Z</time>
      </trkpt>
      <trkpt lat="43.07413" lon="0.56457">
        <ele>423.173</ele>
        <time>2020-06-02T04:11:00Z</time>
      </trkpt>
      <trkpt lat="43.07422" lon="0.56492">
        <ele>422.749</ele>
        <time>2020-06-02T04:10:40Z</time>
      </trkpt>
      <trkpt lat="43.0743" lon="0.56569">
        <ele>425.338</ele>
        <time>2020-06-02T04:10:20Z</time>
      </trkpt>
      <trkpt lat="43.07434" lon="0.566">
        <ele>426.823</ele>
        <time>2020-06-02T04:10:00Z</time>
      </trkpt>
      <trkpt lat="43.07425" lon="0.56624">
        <ele>428.829</ele>
        <time>2020-06-02T04:09:40Z</time>
      </trkpt>
      <trkpt lat="43.07425" lon="0.56656">
        <ele>428.453</ele>
        <time>2020-06-02T04:09:20Z</time>
      </trkpt>
      <trkpt lat="43.07408" lon="0.56694">
        <ele>430.946</ele>
        <time>2020-06-02T04:09:00Z</time>
      </trkpt>
      <trkpt lat="43.07409" lon="0.56717">
        <ele>430.081</ele>
        <time>2020-06-02T04:08:40Z</time>
      </trkpt>
      <trkpt lat="43.07389" lon="0.56741">
        <ele>430.708</ele>
        <time>2020-06-02T04:08:20Z</time>
      </trkpt>
      <trkpt lat="43.07319" lon="0.5684">
        <ele>438.315</ele>
        <time>2020-06-02T04:08:00Z</time>
      </trkpt>
      <trkpt lat="43.07302" lon="0.5687">
        <ele>439.205</ele>
        <time>2020-06-02T04:07:40Z</time>
      </trkpt>
      <trkpt lat="43.0727" lon="0.56976">
        <ele>437.344</ele>
        <time>2020-06-02T04:07:20Z</time>
      </trkpt>
      <trkpt lat="43.07224" lon="0.57061">
        <ele>440.584</ele>
        <time>2020-06-02T04:07:00Z</time>
      </trkpt>
      <trkpt lat="43.07165" lon="0.5715">
        <ele>439.55</ele>
        <time>2020-06-02T04:06:40Z</time>
      </trkpt>
      <trkpt lat="43.07143" lon="0.57194">
        <ele>437.949</ele>
        <time>2020-06-02T04:06:20Z</time>
      </trkpt>
      <trkpt lat="43.07125" lon="0.5725">
        <ele>436.534</ele>
        <time>2020-06-02T04:06:00Z</time>
      </trkpt>
      <trkpt lat="43.07113" lon="0.57288">
        <ele>435.53</ele>
        <time>2020-06-02T04:05:40Z</time>
      </trkpt>
      <trkpt lat="43.07087" lon="0.57313">
        <ele>435.694</ele>
        <time>2020-06-02T04:05:20Z</time>
      </trkpt>
      <trkpt lat="43.07082" lon="0.57312">
        <ele>435.877</ele>
        <time>2020-06-02T04:05:00Z</time>
      </trkpt>
      <trkpt lat="43.0706" lon="0.57333">
        <ele>435.952</ele>
        <time>2020-06-02T04:04:40Z</time>
      </trkpt>
      <trkpt lat="43.07051" lon="0.57353">
        <ele>435.508</ele>
        <time>2020-06-02T04:04:20Z</time>
      </trkpt>
      <trkpt lat="43.07035" lon="0.57422">
        <ele>434.32</ele>
        <time>2020-06-02T04:04:00Z</time>
      </trkpt>
      <trkpt lat="43.06999" lon="0.57495">
        <ele>434</ele>
        <time>2020-06-02T04:03:40Z</time>
      </trkpt>
      <trkpt lat="43.07002" lon="0.57518">
        <ele>433.957</ele>
        <time>2020-06-02T04:03:20Z</time>
      </trkpt>
      <trkpt lat="43.07042" lon="0.57606">
        <ele>431.585</ele>
        <time>2020-06-02T04:03:00Z</time>
      </trkpt>
      <trkpt lat="43.07065" lon="0.57664">
        <ele>430.731</ele>
        <time>2020-06-02T04:02:40Z</time>
      </trkpt>
      <trkpt lat="43.07111" lon="0.57753">
        <ele>430.06</ele>
        <time>2020-06-02T04:02:20Z</time>
      </trkpt>
      <trkpt lat="43.07138" lon="0.57812">
        <ele>430.095</ele>
        <time>2020-06-02T04:02:00Z</time>
      </trkpt>
      <trkpt lat="43.0715" lon="0.57865">
        <ele>429.641</ele>
        <time>2020-06-02T04:01:40Z</time>
      </trkpt>
      <trkpt lat="43.07162" lon="0.57948">
        <ele>429.275</ele>
        <time>2020-06-02T04:01:20Z</time>
      </trkpt>
      <trkpt lat="43.07174" lon="0.57977">
        <ele>428.758</ele>
        <time>2020-06-02T04:01:00Z</time>
      </trkpt>
      <trkpt lat="43.07329" lon="0.58186">
        <ele>427.123</ele>
        <time>2020-06-02T03:59:40Z</time>
      </trkpt>
      <trkpt lat="43.07354" lon="0.5823">
        <ele>427.108</ele>
        <time>2020-06-02T03:59:20Z</time>
      </trkpt>
      <trkpt lat="43.07406" lon="0.58361">
        <ele>428.018</ele>
        <time>2020-06-02T03:59:00Z</time>
      </trkpt>
      <trkpt lat="43.07499" lon="0.58486">
        <ele>427.544</ele>
        <time>2020-06-02T03:58:20Z</time>
      </trkpt>
      <trkpt lat="43.07537" lon="0.5848">
        <ele>427.063</ele>
        <time>2020-06-02T03:56:00Z</time>
      </trkpt>
      <trkpt lat="43.07535" lon="0.58514">
        <ele>427.015</ele>
        <time>2020-06-02T03:55:40Z</time>
      </trkpt>
      <trkpt lat="43.07483" lon="0.58766">
        <ele>427.631</ele>
        <time>2020-06-02T03:55:20Z</time>
      </trkpt>
      <trkpt lat="43.07467" lon="0.58913">
        <ele>428.28</ele>
        <time>2020-06-02T03:55:00Z</time>
      </trkpt>
      <trkpt lat="43.07462" lon="0.59026">
        <ele>429.085</ele>
        <time>2020-06-02T03:54:40Z</time>
      </trkpt>
      <trkpt lat="43.07464" lon="0.59145">
        <ele>429.431</ele>
        <time>2020-06-02T03:54:20Z</time>
      </trkpt>
      <trkpt lat="43.07495" lon="0.59412">
        <ele>428.055</ele>
        <time>2020-06-02T03:54:00Z</time>
      </trkpt>
      <trkpt lat="43.07531" lon="0.59683">
        <ele>425.068</ele>
        <time>2020-06-02T03:53:40Z</time>
      </trkpt>
      <trkpt lat="43.07537" lon="0.59758">
        <ele>424.743</ele>
        <time>2020-06-02T03:53:20Z</time>
      </trkpt>
      <trkpt lat="43.07544" lon="0.59762">
        <ele>424.608</ele>
        <time>2020-06-02T03:53:00Z</time>
      </trkpt>
      <trkpt lat="43.0757" lon="0.59939">
        <ele>424.026</ele>
        <time>2020-06-02T03:52:40Z</time>
      </trkpt>
      <trkpt lat="43.07585" lon="0.60061">
        <ele>423.042</ele>
        <time>2020-06-02T03:52:20Z</time>
      </trkpt>
      <trkpt lat="43.07577" lon="0.60087">
        <ele>423.068</ele>
        <time>2020-06-02T03:52:00Z</time>
      </trkpt>
      <trkpt lat="43.07575" lon="0.60114">
        <ele>423.023</ele>
        <time>2020-06-02T03:51:40Z</time>
      </trkpt>
      <trkpt lat="43.07581" lon="0.60148">
        <ele>423.049</ele>
        <time>2020-06-02T03:51:20Z</time>
      </trkpt>
      <trkpt lat="43.07598" lon="0.60129">
        <ele>423.088</ele>
        <time>2020-06-02T03:51:00Z</time>
      </trkpt>
      <trkpt lat="43.07613" lon="0.60119">
        <ele>423.043</ele>
        <time>2020-06-02T03:50:40Z</time>
      </trkpt>
      <trkpt lat="43.07626" lon="0.6023">
        <ele>422.379</ele>
        <time>2020-06-02T03:50:20Z</time>
      </trkpt>
      <trkpt lat="43.07635" lon="0.60251">
        <ele>422.053</ele>
        <time>2020-06-02T03:50:00Z</time>
      </trkpt>
      <trkpt lat="43.07676" lon="0.60281">
        <ele>422.086</ele>
        <time>2020-06-02T03:49:40Z</time>
      </trkpt>
      <trkpt lat="43.0774" lon="0.60319">
        <ele>421.081</ele>
        <time>2020-06-02T03:49:20Z</time>
      </trkpt>
      <trkpt lat="43.07776" lon="0.60348">
        <ele>421.008</ele>
        <time>2020-06-02T03:49:00Z</time>
      </trkpt>
      <trkpt lat="43.07825" lon="0.60397">
        <ele>421.015</ele>
        <time>2020-06-02T03:48:40Z</time>
      </trkpt>
      <trkpt lat="43.07861" lon="0.60446">
        <ele>420.005</ele>
        <time>2020-06-02T03:48:20Z</time>
      </trkpt>
      <trkpt lat="43.07893" lon="0.60512">
        <ele>420.044</ele>
        <time>2020-06-02T03:48:00Z</time>
      </trkpt>
      <trkpt lat="43.07923" lon="0.60579">
        <ele>420.017</ele>
        <time>2020-06-02T03:47:40Z</time>
      </trkpt>
      <trkpt lat="43.07952" lon="0.60558">
        <ele>420.063</ele>
        <time>2020-06-02T03:47:20Z</time>
      </trkpt>
      <trkpt lat="43.07973" lon="0.60558">
        <ele>420.032</ele>
        <time>2020-06-02T03:47:00Z</time>
      </trkpt>
      <trkpt lat="43.0806" lon="0.60627">
        <ele>419.087</ele>
        <time>2020-06-02T03:46:40Z</time>
      </trkpt>
      <trkpt lat="43.08127" lon="0.60694">
        <ele>418.533</ele>
        <time>2020-06-02T03:46:20Z</time>
      </trkpt>
      <trkpt lat="43.08171" lon="0.60778">
        <ele>418.087</ele>
        <time>2020-06-02T03:46:00Z</time>
      </trkpt>
      <trkpt lat="43.0822" lon="0.60857">
        <ele>417.22</ele>
        <time>2020-06-02T03:45:40Z</time>
      </trkpt>
      <trkpt lat="43.08251" lon="0.60894">
        <ele>417.075</ele>
        <time>2020-06-02T03:45:20Z</time>
      </trkpt>
      <trkpt lat="43.08347" lon="0.60988">
        <ele>417.008</ele>
        <time>2020-06-02T03:45:00Z</time>
      </trkpt>
      <trkpt lat="43.0839" lon="0.61026">
        <ele>417.017</ele>
        <time>2020-06-02T03:44:40Z</time>
      </trkpt>
      <trkpt lat="43.08442" lon="0.6108">
        <ele>417.025</ele>
        <time>2020-06-02T03:44:20Z</time>
      </trkpt>
      <trkpt lat="43.08496" lon="0.61152">
        <ele>416.083</ele>
        <time>2020-06-02T03:44:00Z</time>
      </trkpt>
      <trkpt lat="43.08532" lon="0.61198">
        <ele>416.023</ele>
        <time>2020-06-02T03:43:40Z</time>
      </trkpt>
      <trkpt lat="43.08555" lon="0.61216">
        <ele>416.069</ele>
        <time>2020-06-02T03:43:20Z</time>
      </trkpt>
      <trkpt lat="43.08599" lon="0.61335">
        <ele>414.998</ele>
        <time>2020-06-02T03:43:00Z</time>
      </trkpt>
      <trkpt lat="43.08639" lon="0.61468">
        <ele>412.113</ele>
        <time>2020-06-02T03:42:40Z</time>
      </trkpt>
      <trkpt lat="43.08663" lon="0.61554">
        <ele>411.019</ele>
        <time>2020-06-02T03:42:20Z</time>
      </trkpt>
      <trkpt lat="43.08727" lon="0.61723">
        <ele>410.033</ele>
        <time>2020-06-02T03:42:00Z</time>
      </trkpt>
      <trkpt lat="43.08745" lon="0.61773">
        <ele>410.076</ele>
        <time>2020-06-02T03:41:40Z</time>
      </trkpt>
      <trkpt lat="43.08775" lon="0.61762">
        <ele>409.681</ele>
        <time>2020-06-02T03:41:20Z</time>
      </trkpt>
      <trkpt lat="43.08857" lon="0.61848">
        <ele>405.108</ele>
        <time>2020-06-02T03:41:00Z</time>
      </trkpt>
      <trkpt lat="43.08943" lon="0.6192">
        <ele>403.309</ele>
        <time>2020-06-02T03:40:40Z</time>
      </trkpt>
      <trkpt lat="43.08957" lon="0.6195">
        <ele>400.081</ele>
        <time>2020-06-02T03:40:20Z</time>
      </trkpt>
      <trkpt lat="43.08977" lon="0.62099">
        <ele>399.241</ele>
        <time>2020-06-02T03:39:40Z</time>
      </trkpt>
      <trkpt lat="43.09002" lon="0.62253">
        <ele>398.972</ele>
        <time>2020-06-02T03:39:00Z</time>
      </trkpt>
      <trkpt lat="43.08986" lon="0.62414">
        <ele>397.178</ele>
        <time>2020-06-02T03:38:20Z</time>
      </trkpt>
      <trkpt lat="43.08988" lon="0.62453">
        <ele>396.977</ele>
        <time>2020-06-02T03:38:00Z</time>
      </trkpt>
      <trkpt lat="43.08994" lon="0.62501">
        <ele>396.572</ele>
        <time>2020-06-02T03:37:40Z</time>
      </trkpt>
      <trkpt lat="43.09011" lon="0.6256">
        <ele>397.028</ele>
        <time>2020-06-02T03:37:20Z</time>
      </trkpt>
      <trkpt lat="43.09047" lon="0.62653">
        <ele>395.962</ele>
        <time>2020-06-02T03:37:00Z</time>
      </trkpt>
      <trkpt lat="43.09039" lon="0.62686">
        <ele>398.155</ele>
        <time>2020-06-02T03:36:40Z</time>
      </trkpt>
      <trkpt lat="43.09029" lon="0.62747">
        <ele>401.75</ele>
        <time>2020-06-02T03:36:20Z</time>
      </trkpt>
      <trkpt lat="43.09019" lon="0.62771">
        <ele>403.508</ele>
        <time>2020-06-02T03:36:00Z</time>
      </trkpt>
      <trkpt lat="43.08996" lon="0.62786">
        <ele>405.018</ele>
        <time>2020-06-02T03:35:40Z</time>
      </trkpt>
      <trkpt lat="43.09022" lon="0.62851">
        <ele>404.217</ele>
        <time>2020-06-02T03:35:20Z</time>
      </trkpt>
      <trkpt lat="43.09042" lon="0.62931">
        <ele>403.236</ele>
        <time>2020-06-02T03:35:00Z</time>
      </trkpt>
      <trkpt lat="43.09059" lon="0.63014">
        <ele>402.722</ele>
        <time>2020-06-02T03:34:40Z</time>
      </trkpt>
      <trkpt lat="43.09071" lon="0.63047">
        <ele>401.998</ele>
        <time>2020-06-02T03:34:20Z</time>
      </trkpt>
      <trkpt lat="43.09116" lon="0.63136">
        <ele>400.867</ele>
        <time>2020-06-02T03:34:00Z</time>
      </trkpt>
      <trkpt lat="43.09172" lon="0.63275">
        <ele>401.772</ele>
        <time>2020-06-02T03:33:20Z</time>
      </trkpt>
      <trkpt lat="43.09317" lon="0.6358">
        <ele>401.058</ele>
        <time>2020-06-02T03:32:40Z</time>
      </trkpt>
      <trkpt lat="43.09329" lon="0.63711">
        <ele>400.512</ele>
        <time>2020-06-02T03:31:20Z</time>
      </trkpt>
      <trkpt lat="43.09336" lon="0.63919">
        <ele>399.885</ele>
        <time>2020-06-02T03:31:00Z</time>
      </trkpt>
      <trkpt lat="43.09355" lon="0.64427">
        <ele>397.02</ele>
        <time>2020-06-02T03:30:40Z</time>
      </trkpt>
      <trkpt lat="43.09359" lon="0.64465">
        <ele>396.308</ele>
        <time>2020-06-02T03:30:20Z</time>
      </trkpt>
      <trkpt lat="43.09394" lon="0.65439">
        <ele>392.013</ele>
        <time>2020-06-02T03:29:20Z</time>
      </trkpt>
      <trkpt lat="43.09391" lon="0.65537">
        <ele>392.049</ele>
        <time>2020-06-02T03:29:00Z</time>
      </trkpt>
      <trkpt lat="43.09397" lon="0.65613">
        <ele>391.737</ele>
        <time>2020-06-02T03:28:40Z</time>
      </trkpt>
      <trkpt lat="43.09405" lon="0.65674">
        <ele>391.077</ele>
        <time>2020-06-02T03:28:20Z</time>
      </trkpt>
      <trkpt lat="43.09414" lon="0.6593">
        <ele>390.013</ele>
        <time>2020-06-02T03:28:00Z</time>
      </trkpt>
      <trkpt lat="43.09421" lon="0.66106">
        <ele>389.072</ele>
        <time>2020-06-02T03:27:40Z</time>
      </trkpt>
      <trkpt lat="43.09417" lon="0.66125">
        <ele>389.067</ele>
        <time>2020-06-02T03:27:20Z</time>
      </trkpt>
      <trkpt lat="43.09452" lon="0.66126">
        <ele>389.093</ele>
        <time>2020-06-02T03:27:00Z</time>
      </trkpt>
      <trkpt lat="43.09458" lon="0.66217">
        <ele>388.047</ele>
        <time>2020-06-02T03:26:40Z</time>
      </trkpt>
      <trkpt lat="43.09467" lon="0.66288">
        <ele>388.09</ele>
        <time>2020-06-02T03:26:20Z</time>
      </trkpt>
      <trkpt lat="43.09478" lon="0.66301">
        <ele>388.095</ele>
        <time>2020-06-02T03:26:00Z</time>
      </trkpt>
      <trkpt lat="43.09636" lon="0.66304">
        <ele>387.008</ele>
        <time>2020-06-02T03:25:20Z</time>
      </trkpt>
      <trkpt lat="43.09628" lon="0.66354">
        <ele>387.017</ele>
        <time>2020-06-02T03:25:00Z</time>
      </trkpt>
      <trkpt lat="43.09616" lon="0.66466">
        <ele>386.007</ele>
        <time>2020-06-02T03:24:40Z</time>
      </trkpt>
      <trkpt lat="43.09614" lon="0.66504">
        <ele>386.084</ele>
        <time>2020-06-02T03:24:20Z</time>
      </trkpt>
      <trkpt lat="43.09613" lon="0.66554">
        <ele>386.026</ele>
        <time>2020-06-02T03:24:00Z</time>
      </trkpt>
      <trkpt lat="43.09605" lon="0.66605">
        <ele>386.052</ele>
        <time>2020-06-02T03:23:40Z</time>
      </trkpt>
      <trkpt lat="43.09588" lon="0.66678">
        <ele>385.081</ele>
        <time>2020-06-02T03:23:20Z</time>
      </trkpt>
      <trkpt lat="43.09589" lon="0.66703">
        <ele>385.056</ele>
        <time>2020-06-02T03:23:00Z</time>
      </trkpt>
      <trkpt lat="43.09612" lon="0.66757">
        <ele>385.032</ele>
        <time>2020-06-02T03:22:40Z</time>
      </trkpt>
      <trkpt lat="43.09663" lon="0.66863">
        <ele>385.056</ele>
        <time>2020-06-02T03:22:20Z</time>
      </trkpt>
      <trkpt lat="43.09664" lon="0.66887">
        <ele>385.019</ele>
        <time>2020-06-02T03:22:00Z</time>
      </trkpt>
      <trkpt lat="43.09596" lon="0.66951">
        <ele>385.054</ele>
        <time>2020-06-02T03:21:40Z</time>
      </trkpt>
      <trkpt lat="43.09599" lon="0.66986">
        <ele>385.008</ele>
        <time>2020-06-02T03:21:20Z</time>
      </trkpt>
      <trkpt lat="43.0962" lon="0.66995">
        <ele>384.713</ele>
        <time>2020-06-02T03:21:00Z</time>
      </trkpt>
      <trkpt lat="43.09653" lon="0.67025">
        <ele>384.085</ele>
        <time>2020-06-02T03:20:40Z</time>
      </trkpt>
      <trkpt lat="43.09737" lon="0.67177">
        <ele>382.373</ele>
        <time>2020-06-02T03:19:40Z</time>
      </trkpt>
      <trkpt lat="43.09892" lon="0.67489">
        <ele>379.017</ele>
        <time>2020-06-02T03:18:20Z</time>
      </trkpt>
      <trkpt lat="43.09916" lon="0.67562">
        <ele>378.863</ele>
        <time>2020-06-02T03:18:00Z</time>
      </trkpt>
      <trkpt lat="43.09931" lon="0.67648">
        <ele>378.052</ele>
        <time>2020-06-02T03:17:40Z</time>
      </trkpt>
      <trkpt lat="43.09932" lon="0.67715">
        <ele>377.637</ele>
        <time>2020-06-02T03:17:20Z</time>
      </trkpt>
      <trkpt lat="43.09894" lon="0.67946">
        <ele>376.023</ele>
        <time>2020-06-02T03:17:00Z</time>
      </trkpt>
      <trkpt lat="43.09836" lon="0.68242">
        <ele>374.987</ele>
        <time>2020-06-02T03:16:20Z</time>
      </trkpt>
      <trkpt lat="43.09707" lon="0.68795">
        <ele>372.27</ele>
        <time>2020-06-02T03:16:00Z</time>
      </trkpt>
      <trkpt lat="43.09687" lon="0.68909">
        <ele>371.585</ele>
        <time>2020-06-02T03:15:40Z</time>
      </trkpt>
      <trkpt lat="43.09735" lon="0.68926">
        <ele>370.308</ele>
        <time>2020-06-02T03:15:00Z</time>
      </trkpt>
      <trkpt lat="43.09717" lon="0.69019">
        <ele>370.026</ele>
        <time>2020-06-02T03:14:40Z</time>
      </trkpt>
      <trkpt lat="43.0971" lon="0.69071">
        <ele>369.424</ele>
        <time>2020-06-02T03:14:20Z</time>
      </trkpt>
      <trkpt lat="43.09711" lon="0.69097">
        <ele>369.288</ele>
        <time>2020-06-02T03:14:00Z</time>
      </trkpt>
      <trkpt lat="43.09716" lon="0.69106">
        <ele>369.065</ele>
        <time>2020-06-02T03:13:40Z</time>
      </trkpt>
      <trkpt lat="43.09679" lon="0.69251">
        <ele>368.571</ele>
        <time>2020-06-02T03:13:20Z</time>
      </trkpt>
      <trkpt lat="43.09662" lon="0.69338">
        <ele>368.02</ele>
        <time>2020-06-02T03:13:00Z</time>
      </trkpt>
      <trkpt lat="43.09658" lon="0.69411">
        <ele>367.585</ele>
        <time>2020-06-02T03:12:40Z</time>
      </trkpt>
      <trkpt lat="43.09658" lon="0.69467">
        <ele>367.011</ele>
        <time>2020-06-02T03:12:20Z</time>
      </trkpt>
      <trkpt lat="43.09667" lon="0.6954">
        <ele>366.635</ele>
        <time>2020-06-02T03:12:00Z</time>
      </trkpt>
      <trkpt lat="43.09686" lon="0.69612">
        <ele>366.078</ele>
        <time>2020-06-02T03:11:40Z</time>
      </trkpt>
      <trkpt lat="43.09698" lon="0.69676">
        <ele>365.053</ele>
        <time>2020-06-02T03:11:20Z</time>
      </trkpt>
      <trkpt lat="43.0972" lon="0.69761">
        <ele>365.008</ele>
        <time>2020-06-02T03:11:00Z</time>
      </trkpt>
      <trkpt lat="43.09727" lon="0.69809">
        <ele>365.024</ele>
        <time>2020-06-02T03:10:40Z</time>
      </trkpt>
      <trkpt lat="43.0973" lon="0.69857">
        <ele>365.004</ele>
        <time>2020-06-02T03:10:20Z</time>
      </trkpt>
      <trkpt lat="43.09725" lon="0.69938">
        <ele>365.069</ele>
        <time>2020-06-02T03:10:00Z</time>
      </trkpt>
      <trkpt lat="43.09708" lon="0.70067">
        <ele>365.072</ele>
        <time>2020-06-02T03:09:40Z</time>
      </trkpt>
      <trkpt lat="43.09707" lon="0.70091">
        <ele>365.018</ele>
        <time>2020-06-02T03:09:20Z</time>
      </trkpt>
      <trkpt lat="43.09693" lon="0.70103">
        <ele>365.047</ele>
        <time>2020-06-02T03:09:00Z</time>
      </trkpt>
      <trkpt lat="43.09662" lon="0.70121">
        <ele>365.092</ele>
        <time>2020-06-02T03:08:40Z</time>
      </trkpt>
      <trkpt lat="43.0966" lon="0.70135">
        <ele>365.098</ele>
        <time>2020-06-02T03:08:20Z</time>
      </trkpt>
      <trkpt lat="43.09679" lon="0.70217">
        <ele>365.052</ele>
        <time>2020-06-02T03:08:00Z</time>
      </trkpt>
      <trkpt lat="43.0971" lon="0.70325">
        <ele>365.045</ele>
        <time>2020-06-02T03:07:40Z</time>
      </trkpt>
      <trkpt lat="43.09713" lon="0.70352">
        <ele>365.05</ele>
        <time>2020-06-02T03:07:20Z</time>
      </trkpt>
      <trkpt lat="43.09705" lon="0.70394">
        <ele>365.008</ele>
        <time>2020-06-02T03:07:00Z</time>
      </trkpt>
      <trkpt lat="43.09708" lon="0.70424">
        <ele>365.021</ele>
        <time>2020-06-02T03:06:40Z</time>
      </trkpt>
      <trkpt lat="43.09722" lon="0.70466">
        <ele>365.001</ele>
        <time>2020-06-02T03:06:20Z</time>
      </trkpt>
      <trkpt lat="43.09737" lon="0.70516">
        <ele>365.039</ele>
        <time>2020-06-02T03:06:00Z</time>
      </trkpt>
      <trkpt lat="43.09738" lon="0.70541">
        <ele>365.088</ele>
        <time>2020-06-02T03:05:40Z</time>
      </trkpt>
      <trkpt lat="43.09718" lon="0.70586">
        <ele>365.054</ele>
        <time>2020-06-02T03:05:20Z</time>
      </trkpt>
      <trkpt lat="43.09703" lon="0.70602">
        <ele>365.063</ele>
        <time>2020-06-02T03:05:00Z</time>
      </trkpt>
      <trkpt lat="43.09774" lon="0.70653">
        <ele>365.088</ele>
        <time>2020-06-02T03:04:40Z</time>
      </trkpt>
      <trkpt lat="43.09836" lon="0.70489">
        <ele>365.044</ele>
        <time>2021-05-14T21:02:22Z</time>
      </trkpt>
      <trkpt lat="43.09855" lon="0.70305">
        <ele>365.038</ele>
        <time>2021-05-14T21:02:02Z</time>
      </trkpt>
      <trkpt lat="43.09868" lon="0.70104">
        <ele>365.051</ele>
        <time>2021-05-14T21:01:42Z</time>
      </trkpt>
      <trkpt lat="43.09901" lon="0.69978">
        <ele>365.086</ele>
        <time>2021-05-14T21:01:22Z</time>
      </trkpt>
      <trkpt lat="43.09935" lon="0.69921">
        <ele>365.008</ele>
        <time>2021-05-14T21:01:02Z</time>
      </trkpt>
      <trkpt lat="43.10023" lon="0.69994">
        <ele>365.023</ele>
        <time>2021-05-14T21:00:42Z</time>
      </trkpt>
      <trkpt lat="43.10053" lon="0.70052">
        <ele>365.049</ele>
        <time>2021-05-14T21:00:22Z</time>
      </trkpt>
      <trkpt lat="43.10053" lon="0.70114">
        <ele>365.095</ele>
        <time>2021-05-14T21:00:02Z</time>
      </trkpt>
      <trkpt lat="43.10038" lon="0.70186">
        <ele>365.015</ele>
        <time>2021-05-14T20:59:42Z</time>
      </trkpt>
      <trkpt lat="43.10037" lon="0.70234">
        <ele>365.011</ele>
        <time>2021-05-14T20:59:22Z</time>
      </trkpt>
      <trkpt lat="43.10112" lon="0.70292">
        <ele>365.02</ele>
        <time>2021-05-14T20:59:02Z</time>
      </trkpt>
      <trkpt lat="43.10214" lon="0.70493">
        <ele>365.025</ele>
        <time>2021-05-14T20:58:42Z</time>
      </trkpt>
      <trkpt lat="43.10177" lon="0.70579">
        <ele>365.051</ele>
        <time>2021-05-14T20:58:22Z</time>
      </trkpt>
      <trkpt lat="43.10138" lon="0.70643">
        <ele>365.085</ele>
        <time>2020-06-02T03:04:20Z</time>
      </trkpt>
      <trkpt lat="43.10123" lon="0.70919">
        <ele>369.288</ele>
        <time>2020-06-02T03:04:00Z</time>
      </trkpt>
      <trkpt lat="43.10266" lon="0.7098">
        <ele>381.983</ele>
        <time>2021-05-14T20:57:22Z</time>
      </trkpt>
      <trkpt lat="43.10429" lon="0.7103">
        <ele>398.308</ele>
        <time>2020-06-02T03:03:40Z</time>
      </trkpt>
      <trkpt lat="43.10424" lon="0.71062">
        <ele>403.111</ele>
        <time>2020-06-02T03:03:20Z</time>
      </trkpt>
      <trkpt lat="43.10408" lon="0.71073">
        <ele>403.383</ele>
        <time>2020-06-02T03:03:00Z</time>
      </trkpt>
      <trkpt lat="43.10364" lon="0.71056">
        <ele>401.062</ele>
        <time>2020-06-02T03:02:40Z</time>
      </trkpt>
      <trkpt lat="43.09951" lon="0.711">
        <ele>406.346</ele>
        <time>2020-06-02T03:02:20Z</time>
      </trkpt>
      <trkpt lat="43.0992" lon="0.71139">
        <ele>406.192</ele>
        <time>2020-06-02T03:02:00Z</time>
      </trkpt>
      <trkpt lat="43.09915" lon="0.71222">
        <ele>404.311</ele>
        <time>2020-06-02T03:01:40Z</time>
      </trkpt>
      <trkpt lat="43.09922" lon="0.71298">
        <ele>401.096</ele>
        <time>2020-06-02T03:01:20Z</time>
      </trkpt>
      <trkpt lat="43.09959" lon="0.71378">
        <ele>400.332</ele>
        <time>2020-06-02T03:01:00Z</time>
      </trkpt>
      <trkpt lat="43.10095" lon="0.7148">
        <ele>397.236</ele>
        <time>2020-06-02T03:00:20Z</time>
      </trkpt>
      <trkpt lat="43.10171" lon="0.71564">
        <ele>390.559</ele>
        <time>2020-06-02T03:00:00Z</time>
      </trkpt>
      <trkpt lat="43.10453" lon="0.71923">
        <ele>392.394</ele>
        <time>2020-06-02T02:59:00Z</time>
      </trkpt>
      <trkpt lat="43.10584" lon="0.72041">
        <ele>395.108</ele>
        <time>2020-06-02T02:58:40Z</time>
      </trkpt>
      <trkpt lat="43.10603" lon="0.72092">
        <ele>394.419</ele>
        <time>2020-06-02T02:58:20Z</time>
      </trkpt>
      <trkpt lat="43.10621" lon="0.72158">
        <ele>393.69</ele>
        <time>2020-06-02T02:58:00Z</time>
      </trkpt>
      <trkpt lat="43.10626" lon="0.7222">
        <ele>391.976</ele>
        <time>2020-06-02T02:57:40Z</time>
      </trkpt>
      <trkpt lat="43.10674" lon="0.72394">
        <ele>391.788</ele>
        <time>2020-06-02T02:57:20Z</time>
      </trkpt>
      <trkpt lat="43.10748" lon="0.72386">
        <ele>401.824</ele>
        <time>2020-06-02T02:57:00Z</time>
      </trkpt>
      <trkpt lat="43.10773" lon="0.72452">
        <ele>401.833</ele>
        <time>2021-05-14T20:51:02Z</time>
      </trkpt>
      <trkpt lat="43.10764" lon="0.72494">
        <ele>400.638</ele>
        <time>2021-05-14T20:50:42Z</time>
      </trkpt>
      <trkpt lat="43.10697" lon="0.72533">
        <ele>388.044</ele>
        <time>2021-05-14T20:50:22Z</time>
      </trkpt>
      <trkpt lat="43.10698" lon="0.72583">
        <ele>385.618</ele>
        <time>2020-06-02T02:56:40Z</time>
      </trkpt>
      <trkpt lat="43.10545" lon="0.72687">
        <ele>375.281</ele>
        <time>2020-06-02T02:56:00Z</time>
      </trkpt>
      <trkpt lat="43.10554" lon="0.72794">
        <ele>374.466</ele>
        <time>2021-05-14T20:49:22Z</time>
      </trkpt>
      <trkpt lat="43.105" lon="0.72828">
        <ele>373.008</ele>
        <time>2020-06-02T02:55:40Z</time>
      </trkpt>
      <trkpt lat="43.10601" lon="0.73096">
        <ele>371.019</ele>
        <time>2020-06-02T02:55:20Z</time>
      </trkpt>
      <trkpt lat="43.10642" lon="0.73206">
        <ele>370.081</ele>
        <time>2020-06-02T02:55:00Z</time>
      </trkpt>
      <trkpt lat="43.10656" lon="0.73321">
        <ele>369.391</ele>
        <time>2020-06-02T02:54:40Z</time>
      </trkpt>
      <trkpt lat="43.10597" lon="0.73333">
        <ele>369.08</ele>
        <time>2020-06-02T02:54:20Z</time>
      </trkpt>
      <trkpt lat="43.10602" lon="0.73464">
        <ele>368.016</ele>
        <time>2020-06-02T02:54:00Z</time>
      </trkpt>
      <trkpt lat="43.10617" lon="0.73532">
        <ele>368.025</ele>
        <time>2020-06-02T02:53:40Z</time>
      </trkpt>
      <trkpt lat="43.1063" lon="0.7364">
        <ele>367.05</ele>
        <time>2020-06-02T02:53:20Z</time>
      </trkpt>
      <trkpt lat="43.10621" lon="0.73659">
        <ele>367.066</ele>
        <time>2020-06-02T02:53:00Z</time>
      </trkpt>
      <trkpt lat="43.10554" lon="0.73697">
        <ele>366.82</ele>
        <time>2020-06-02T02:52:40Z</time>
      </trkpt>
      <trkpt lat="43.10554" lon="0.73729">
        <ele>366.043</ele>
        <time>2020-06-02T02:52:20Z</time>
      </trkpt>
      <trkpt lat="43.10584" lon="0.7388">
        <ele>365.338</ele>
        <time>2020-06-02T02:52:00Z</time>
      </trkpt>
      <trkpt lat="43.10586" lon="0.73959">
        <ele>365.008</ele>
        <time>2020-06-02T02:51:40Z</time>
      </trkpt>
      <trkpt lat="43.10567" lon="0.74126">
        <ele>358.503</ele>
        <time>2020-06-02T02:51:20Z</time>
      </trkpt>
      <trkpt lat="43.10553" lon="0.74216">
        <ele>355.021</ele>
        <time>2020-06-02T02:51:00Z</time>
      </trkpt>
      <trkpt lat="43.10508" lon="0.74315">
        <ele>350.011</ele>
        <time>2020-06-02T02:50:40Z</time>
      </trkpt>
      <trkpt lat="43.10482" lon="0.74329">
        <ele>350.045</ele>
        <time>2020-06-02T02:50:20Z</time>
      </trkpt>
      <trkpt lat="43.10438" lon="0.74318">
        <ele>350.091</ele>
        <time>2020-06-02T02:50:00Z</time>
      </trkpt>
      <trkpt lat="43.1041" lon="0.74405">
        <ele>350.04</ele>
        <time>2020-06-02T02:49:40Z</time>
      </trkpt>
      <trkpt lat="43.1042" lon="0.74507">
        <ele>350.045</ele>
        <time>2020-06-02T02:49:20Z</time>
      </trkpt>
      <trkpt lat="43.10467" lon="0.74574">
        <ele>350.011</ele>
        <time>2020-06-02T02:49:00Z</time>
      </trkpt>
      <trkpt lat="43.10436" lon="0.74613">
        <ele>349.995</ele>
        <time>2021-05-14T20:42:02Z</time>
      </trkpt>
      <trkpt lat="43.10443" lon="0.74694">
        <ele>349.048</ele>
        <time>2021-05-14T20:41:42Z</time>
      </trkpt>
      <trkpt lat="43.10397" lon="0.74689">
        <ele>349.063</ele>
        <time>2021-05-14T20:41:22Z</time>
      </trkpt>
      <trkpt lat="43.10426" lon="0.74731">
        <ele>349.008</ele>
        <time>2021-05-14T20:41:02Z</time>
      </trkpt>
      <trkpt lat="43.10542" lon="0.74862">
        <ele>350.021</ele>
        <time>2021-05-14T20:40:42Z</time>
      </trkpt>
      <trkpt lat="43.10592" lon="0.74958">
        <ele>349.029</ele>
        <time>2021-05-14T20:40:22Z</time>
      </trkpt>
      <trkpt lat="43.10617" lon="0.75042">
        <ele>348.066</ele>
        <time>2020-06-02T02:46:40Z</time>
      </trkpt>
      <trkpt lat="43.1062" lon="0.7507">
        <ele>348.015</ele>
        <time>2020-06-02T02:46:20Z</time>
      </trkpt>
      <trkpt lat="43.10621" lon="0.75131">
        <ele>348.011</ele>
        <time>2020-06-02T02:46:00Z</time>
      </trkpt>
      <trkpt lat="43.10626" lon="0.75153">
        <ele>348.07</ele>
        <time>2020-06-02T02:45:40Z</time>
      </trkpt>
      <trkpt lat="43.10649" lon="0.7519">
        <ele>348.085</ele>
        <time>2020-06-02T02:45:20Z</time>
      </trkpt>
      <trkpt lat="43.10662" lon="0.75219">
        <ele>348.061</ele>
        <time>2020-06-02T02:45:00Z</time>
      </trkpt>
      <trkpt lat="43.10667" lon="0.75251">
        <ele>348.075</ele>
        <time>2020-06-02T02:44:40Z</time>
      </trkpt>
      <trkpt lat="43.10674" lon="0.75312">
        <ele>349.048</ele>
        <time>2020-06-02T02:44:20Z</time>
      </trkpt>
      <trkpt lat="43.10689" lon="0.75373">
        <ele>349.033</ele>
        <time>2020-06-02T02:44:00Z</time>
      </trkpt>
      <trkpt lat="43.10716" lon="0.75437">
        <ele>349.008</ele>
        <time>2020-06-02T02:43:40Z</time>
      </trkpt>
      <trkpt lat="43.10743" lon="0.75479">
        <ele>349.024</ele>
        <time>2020-06-02T02:43:20Z</time>
      </trkpt>
      <trkpt lat="43.10751" lon="0.75504">
        <ele>349.104</ele>
        <time>2020-06-02T02:43:00Z</time>
      </trkpt>
      <trkpt lat="43.1075" lon="0.75524">
        <ele>349.969</ele>
        <time>2020-06-02T02:42:40Z</time>
      </trkpt>
      <trkpt lat="43.10727" lon="0.75578">
        <ele>356.388</ele>
        <time>2020-06-02T02:42:20Z</time>
      </trkpt>
      <trkpt lat="43.10725" lon="0.75604">
        <ele>359.294</ele>
        <time>2020-06-02T02:42:00Z</time>
      </trkpt>
      <trkpt lat="43.10724" lon="0.75679">
        <ele>357.883</ele>
        <time>2020-06-02T02:41:40Z</time>
      </trkpt>
      <trkpt lat="43.107" lon="0.757">
        <ele>354.668</ele>
        <time>2020-06-02T02:41:20Z</time>
      </trkpt>
      <trkpt lat="43.10681" lon="0.75734">
        <ele>350.664</ele>
        <time>2020-06-02T02:41:00Z</time>
      </trkpt>
      <trkpt lat="43.10678" lon="0.75754">
        <ele>349.948</ele>
        <time>2020-06-02T02:40:40Z</time>
      </trkpt>
      <trkpt lat="43.10688" lon="0.76249">
        <ele>345.771</ele>
        <time>2020-06-02T02:40:20Z</time>
      </trkpt>
      <trkpt lat="43.10717" lon="0.76535">
        <ele>346.846</ele>
        <time>2020-06-02T02:40:00Z</time>
      </trkpt>
      <trkpt lat="43.10713" lon="0.76599">
        <ele>345.808</ele>
        <time>2020-06-02T02:39:40Z</time>
      </trkpt>
      <trkpt lat="43.10653" lon="0.77234">
        <ele>340.027</ele>
        <time>2020-06-02T02:39:20Z</time>
      </trkpt>
      <trkpt lat="43.10661" lon="0.77287">
        <ele>340.207</ele>
        <time>2020-06-02T02:39:00Z</time>
      </trkpt>
      <trkpt lat="43.1066" lon="0.77311">
        <ele>341.299</ele>
        <time>2020-06-02T02:38:40Z</time>
      </trkpt>
      <trkpt lat="43.10633" lon="0.77373">
        <ele>344.028</ele>
        <time>2020-06-02T02:38:20Z</time>
      </trkpt>
      <trkpt lat="43.10611" lon="0.77412">
        <ele>346.344</ele>
        <time>2020-06-02T02:38:00Z</time>
      </trkpt>
      <trkpt lat="43.10587" lon="0.77445">
        <ele>346.633</ele>
        <time>2020-06-02T02:37:40Z</time>
      </trkpt>
      <trkpt lat="43.10475" lon="0.77672">
        <ele>352.338</ele>
        <time>2020-06-02T02:37:20Z</time>
      </trkpt>
      <trkpt lat="43.10433" lon="0.77699">
        <ele>351.164</ele>
        <time>2020-06-02T02:37:00Z</time>
      </trkpt>
      <trkpt lat="43.10426" lon="0.77695">
        <ele>351.068</ele>
        <time>2020-06-02T02:36:40Z</time>
      </trkpt>
      <trkpt lat="43.10414" lon="0.77661">
        <ele>350.031</ele>
        <time>2020-06-02T02:36:20Z</time>
      </trkpt>
      <trkpt lat="43.10402" lon="0.77655">
        <ele>349.896</ele>
        <time>2020-06-02T02:36:00Z</time>
      </trkpt>
      <trkpt lat="43.10367" lon="0.77671">
        <ele>345.308</ele>
        <time>2020-06-02T02:35:40Z</time>
      </trkpt>
      <trkpt lat="43.10352" lon="0.7769">
        <ele>344.226</ele>
        <time>2020-06-02T02:35:20Z</time>
      </trkpt>
      <trkpt lat="43.1034" lon="0.77714">
        <ele>344.415</ele>
        <time>2020-06-02T02:35:00Z</time>
      </trkpt>
      <trkpt lat="43.10327" lon="0.77728">
        <ele>344.198</ele>
        <time>2020-06-02T02:34:40Z</time>
      </trkpt>
      <trkpt lat="43.10245" lon="0.77804">
        <ele>342.752</ele>
        <time>2020-06-02T02:34:20Z</time>
      </trkpt>
      <trkpt lat="43.10232" lon="0.77826">
        <ele>342.428</ele>
        <time>2020-06-02T02:34:00Z</time>
      </trkpt>
      <trkpt lat="43.10217" lon="0.77866">
        <ele>342.757</ele>
        <time>2020-06-02T02:33:40Z</time>
      </trkpt>
      <trkpt lat="43.10193" lon="0.7797">
        <ele>342.922</ele>
        <time>2020-06-02T02:33:20Z</time>
      </trkpt>
      <trkpt lat="43.10166" lon="0.78043">
        <ele>343.558</ele>
        <time>2020-06-02T02:33:00Z</time>
      </trkpt>
      <trkpt lat="43.10135" lon="0.78152">
        <ele>342.072</ele>
        <time>2020-06-02T02:32:40Z</time>
      </trkpt>
      <trkpt lat="43.10109" lon="0.78274">
        <ele>341.945</ele>
        <time>2020-06-02T02:32:20Z</time>
      </trkpt>
      <trkpt lat="43.10076" lon="0.78477">
        <ele>341.61</ele>
        <time>2020-06-02T02:32:00Z</time>
      </trkpt>
      <trkpt lat="43.10077" lon="0.78687">
        <ele>338.808</ele>
        <time>2020-06-02T02:31:40Z</time>
      </trkpt>
      <trkpt lat="43.10086" lon="0.78732">
        <ele>338.121</ele>
        <time>2020-06-02T02:31:20Z</time>
      </trkpt>
      <trkpt lat="43.10088" lon="0.78788">
        <ele>338.001</ele>
        <time>2020-06-02T02:31:00Z</time>
      </trkpt>
      <trkpt lat="43.10103" lon="0.78899">
        <ele>337.039</ele>
        <time>2020-06-02T02:30:40Z</time>
      </trkpt>
      <trkpt lat="43.10131" lon="0.79053">
        <ele>336.113</ele>
        <time>2020-06-02T02:30:20Z</time>
      </trkpt>
      <trkpt lat="43.10181" lon="0.79149">
        <ele>336.549</ele>
        <time>2020-06-02T02:30:00Z</time>
      </trkpt>
      <trkpt lat="43.10239" lon="0.79223">
        <ele>336.688</ele>
        <time>2020-06-02T02:29:40Z</time>
      </trkpt>
      <trkpt lat="43.10292" lon="0.79311">
        <ele>336.443</ele>
        <time>2020-06-02T02:29:20Z</time>
      </trkpt>
      <trkpt lat="43.10314" lon="0.79287">
        <ele>337.299</ele>
        <time>2020-06-02T02:29:00Z</time>
      </trkpt>
      <trkpt lat="43.10374" lon="0.79398">
        <ele>336.883</ele>
        <time>2020-06-02T02:28:40Z</time>
      </trkpt>
      <trkpt lat="43.10444" lon="0.79528">
        <ele>339.016</ele>
        <time>2020-06-02T02:28:20Z</time>
      </trkpt>
      <trkpt lat="43.10499" lon="0.79647">
        <ele>338.921</ele>
        <time>2020-06-02T02:28:00Z</time>
      </trkpt>
      <trkpt lat="43.10544" lon="0.79779">
        <ele>338.608</ele>
        <time>2020-06-02T02:27:40Z</time>
      </trkpt>
      <trkpt lat="43.10562" lon="0.79851">
        <ele>338.621</ele>
        <time>2020-06-02T02:27:20Z</time>
      </trkpt>
      <trkpt lat="43.10587" lon="0.79997">
        <ele>337.229</ele>
        <time>2020-06-02T02:27:00Z</time>
      </trkpt>
      <trkpt lat="43.10603" lon="0.80129">
        <ele>336.747</ele>
        <time>2020-06-02T02:26:40Z</time>
      </trkpt>
      <trkpt lat="43.10605" lon="0.80164">
        <ele>336.812</ele>
        <time>2020-06-02T02:26:20Z</time>
      </trkpt>
      <trkpt lat="43.10599" lon="0.80332">
        <ele>337.678</ele>
        <time>2020-06-02T02:25:40Z</time>
      </trkpt>
      <trkpt lat="43.10582" lon="0.80531">
        <ele>338.017</ele>
        <time>2020-06-02T02:25:00Z</time>
      </trkpt>
      <trkpt lat="43.10574" lon="0.80595">
        <ele>338.012</ele>
        <time>2020-06-02T02:24:40Z</time>
      </trkpt>
      <trkpt lat="43.10582" lon="0.80605">
        <ele>338.018</ele>
        <time>2020-06-02T02:24:20Z</time>
      </trkpt>
      <trkpt lat="43.10649" lon="0.8057">
        <ele>340.462</ele>
        <time>2020-06-02T02:24:00Z</time>
      </trkpt>
      <trkpt lat="43.10736" lon="0.80531">
        <ele>354.735</ele>
        <time>2020-06-02T02:23:40Z</time>
      </trkpt>
      <trkpt lat="43.1075" lon="0.80537">
        <ele>357.25</ele>
        <time>2020-06-02T02:23:20Z</time>
      </trkpt>
      <trkpt lat="43.10763" lon="0.80565">
        <ele>357.608</ele>
        <time>2020-06-02T02:23:00Z</time>
      </trkpt>
      <trkpt lat="43.10782" lon="0.80576">
        <ele>360.221</ele>
        <time>2020-06-02T02:22:40Z</time>
      </trkpt>
      <trkpt lat="43.10879" lon="0.80535">
        <ele>364.901</ele>
        <time>2020-06-02T02:22:20Z</time>
      </trkpt>
      <trkpt lat="43.10873" lon="0.80642">
        <ele>366.439</ele>
        <time>2020-06-02T02:22:00Z</time>
      </trkpt>
      <trkpt lat="43.10871" lon="0.80818">
        <ele>367.052</ele>
        <time>2020-06-02T02:21:40Z</time>
      </trkpt>
      <trkpt lat="43.10864" lon="0.80992">
        <ele>366.998</ele>
        <time>2020-06-02T02:21:20Z</time>
      </trkpt>
      <trkpt lat="43.10865" lon="0.81195">
        <ele>366.017</ele>
        <time>2020-06-02T02:21:00Z</time>
      </trkpt>
      <trkpt lat="43.10848" lon="0.81313">
        <ele>365.552</ele>
        <time>2020-06-02T02:20:40Z</time>
      </trkpt>
      <trkpt lat="43.10821" lon="0.81564">
        <ele>365.098</ele>
        <time>2020-06-02T02:20:20Z</time>
      </trkpt>
      <trkpt lat="43.10805" lon="0.81628">
        <ele>365.082</ele>
        <time>2020-06-02T02:20:00Z</time>
      </trkpt>
      <trkpt lat="43.10806" lon="0.81727">
        <ele>365.045</ele>
        <time>2020-06-02T02:19:40Z</time>
      </trkpt>
      <trkpt lat="43.10816" lon="0.81838">
        <ele>362.81</ele>
        <time>2020-06-02T02:19:20Z</time>
      </trkpt>
      <trkpt lat="43.10841" lon="0.81982">
        <ele>360.008</ele>
        <time>2020-06-02T02:19:00Z</time>
      </trkpt>
      <trkpt lat="43.10847" lon="0.82095">
        <ele>360.707</ele>
        <time>2020-06-02T02:18:40Z</time>
      </trkpt>
      <trkpt lat="43.10863" lon="0.82123">
        <ele>362.561</ele>
        <time>2020-06-02T02:18:20Z</time>
      </trkpt>
      <trkpt lat="43.10848" lon="0.82166">
        <ele>362.531</ele>
        <time>2020-06-02T02:18:00Z</time>
      </trkpt>
      <trkpt lat="43.10827" lon="0.82251">
        <ele>362.617</ele>
        <time>2020-06-02T02:17:40Z</time>
      </trkpt>
      <trkpt lat="43.10751" lon="0.82426">
        <ele>355.463</ele>
        <time>2020-06-02T02:17:20Z</time>
      </trkpt>
      <trkpt lat="43.10708" lon="0.82533">
        <ele>346.612</ele>
        <time>2020-06-02T02:17:00Z</time>
      </trkpt>
      <trkpt lat="43.10679" lon="0.82628">
        <ele>338.017</ele>
        <time>2020-06-02T02:16:40Z</time>
      </trkpt>
      <trkpt lat="43.10661" lon="0.82668">
        <ele>332.353</ele>
        <time>2020-06-02T02:16:20Z</time>
      </trkpt>
      <trkpt lat="43.10634" lon="0.82697">
        <ele>330.037</ele>
        <time>2020-06-02T02:16:00Z</time>
      </trkpt>
      <trkpt lat="43.10642" lon="0.82771">
        <ele>329.38</ele>
        <time>2020-06-02T02:15:40Z</time>
      </trkpt>
      <trkpt lat="43.10663" lon="0.82856">
        <ele>329.095</ele>
        <time>2020-06-02T02:15:20Z</time>
      </trkpt>
      <trkpt lat="43.10699" lon="0.82913">
        <ele>329.008</ele>
        <time>2020-06-02T02:15:00Z</time>
      </trkpt>
      <trkpt lat="43.10735" lon="0.82975">
        <ele>329.026</ele>
        <time>2020-06-02T02:14:40Z</time>
      </trkpt>
      <trkpt lat="43.10747" lon="0.83019">
        <ele>329.006</ele>
        <time>2020-06-02T02:14:20Z</time>
      </trkpt>
      <trkpt lat="43.10763" lon="0.83137">
        <ele>329.089</ele>
        <time>2020-06-02T02:14:00Z</time>
      </trkpt>
      <trkpt lat="43.10738" lon="0.83269">
        <ele>328.025</ele>
        <time>2020-06-02T02:13:40Z</time>
      </trkpt>
      <trkpt lat="43.10725" lon="0.8331">
        <ele>328.021</ele>
        <time>2020-06-02T02:13:20Z</time>
      </trkpt>
      <trkpt lat="43.10664" lon="0.83419">
        <ele>327.03</ele>
        <time>2020-06-02T02:13:00Z</time>
      </trkpt>
      <trkpt lat="43.10655" lon="0.83454">
        <ele>327.025</ele>
        <time>2020-06-02T02:12:40Z</time>
      </trkpt>
      <trkpt lat="43.10666" lon="0.83656">
        <ele>326.491</ele>
        <time>2020-06-02T02:12:20Z</time>
      </trkpt>
      <trkpt lat="43.1069" lon="0.8366">
        <ele>326.945</ele>
        <time>2020-06-02T02:12:00Z</time>
      </trkpt>
      <trkpt lat="43.10728" lon="0.83675">
        <ele>327.018</ele>
        <time>2020-06-02T02:11:40Z</time>
      </trkpt>
      <trkpt lat="43.10751" lon="0.8369">
        <ele>327.073</ele>
        <time>2020-06-02T02:11:20Z</time>
      </trkpt>
      <trkpt lat="43.1076" lon="0.83779">
        <ele>327.008</ele>
        <time>2020-06-02T02:11:00Z</time>
      </trkpt>
      <trkpt lat="43.10762" lon="0.83823">
        <ele>326.411</ele>
        <time>2020-06-02T02:10:40Z</time>
      </trkpt>
      <trkpt lat="43.10759" lon="0.8394">
        <ele>326.083</ele>
        <time>2020-06-02T02:10:20Z</time>
      </trkpt>
      <trkpt lat="43.10779" lon="0.84388">
        <ele>324.062</ele>
        <time>2020-06-02T02:10:00Z</time>
      </trkpt>
      <trkpt lat="43.10767" lon="0.84471">
        <ele>324.052</ele>
        <time>2020-06-02T02:09:40Z</time>
      </trkpt>
      <trkpt lat="43.10773" lon="0.84547">
        <ele>324.038</ele>
        <time>2020-06-02T02:09:20Z</time>
      </trkpt>
      <trkpt lat="43.10783" lon="0.84627">
        <ele>324.067</ele>
        <time>2020-06-02T02:09:00Z</time>
      </trkpt>
      <trkpt lat="43.10789" lon="0.84829">
        <ele>323.062</ele>
        <time>2020-06-02T02:08:40Z</time>
      </trkpt>
      <trkpt lat="43.10781" lon="0.8496">
        <ele>322.428</ele>
        <time>2020-06-02T02:08:20Z</time>
      </trkpt>
      <trkpt lat="43.10764" lon="0.85179">
        <ele>322.012</ele>
        <time>2020-06-02T02:08:00Z</time>
      </trkpt>
      <trkpt lat="43.10753" lon="0.85243">
        <ele>322.025</ele>
        <time>2020-06-02T02:07:40Z</time>
      </trkpt>
      <trkpt lat="43.10746" lon="0.85374">
        <ele>322.09</ele>
        <time>2020-06-02T02:07:20Z</time>
      </trkpt>
      <trkpt lat="43.10743" lon="0.85516">
        <ele>321.808</ele>
        <time>2020-06-02T02:07:00Z</time>
      </trkpt>
      <trkpt lat="43.10735" lon="0.85657">
        <ele>321.013</ele>
        <time>2020-06-02T02:06:40Z</time>
      </trkpt>
      <trkpt lat="43.10723" lon="0.85753">
        <ele>320.949</ele>
        <time>2020-06-02T02:06:20Z</time>
      </trkpt>
      <trkpt lat="43.10702" lon="0.8585">
        <ele>320.037</ele>
        <time>2020-06-02T02:06:00Z</time>
      </trkpt>
      <trkpt lat="43.10677" lon="0.85926">
        <ele>320.022</ele>
        <time>2020-06-02T02:05:40Z</time>
      </trkpt>
      <trkpt lat="43.10704" lon="0.86385">
        <ele>316.428</ele>
        <time>2020-06-02T02:05:20Z</time>
      </trkpt>
      <trkpt lat="43.10713" lon="0.86414">
        <ele>316.177</ele>
        <time>2020-06-02T02:05:00Z</time>
      </trkpt>
      <trkpt lat="43.10768" lon="0.86524">
        <ele>316.772</ele>
        <time>2020-06-02T02:04:40Z</time>
      </trkpt>
      <trkpt lat="43.10791" lon="0.86589">
        <ele>316.078</ele>
        <time>2020-06-02T02:04:20Z</time>
      </trkpt>
      <trkpt lat="43.10839" lon="0.86633">
        <ele>317.052</ele>
        <time>2020-06-02T02:04:00Z</time>
      </trkpt>
      <trkpt lat="43.10874" lon="0.86695">
        <ele>317.575</ele>
        <time>2020-06-02T02:03:40Z</time>
      </trkpt>
      <trkpt lat="43.10969" lon="0.86691">
        <ele>318.97</ele>
        <time>2020-06-02T02:03:00Z</time>
      </trkpt>
      <trkpt lat="43.11077" lon="0.86665">
        <ele>324.408</ele>
        <time>2020-06-02T02:02:40Z</time>
      </trkpt>
      <trkpt lat="43.11089" lon="0.86576">
        <ele>327.714</ele>
        <time>2020-06-02T02:02:20Z</time>
      </trkpt>
      <trkpt lat="43.11124" lon="0.86535">
        <ele>333.486</ele>
        <time>2020-06-02T02:02:00Z</time>
      </trkpt>
      <trkpt lat="43.11166" lon="0.86503">
        <ele>340.835</ele>
        <time>2020-06-02T02:01:40Z</time>
      </trkpt>
      <trkpt lat="43.11218" lon="0.86488">
        <ele>348.356</ele>
        <time>2020-06-02T02:01:20Z</time>
      </trkpt>
      <trkpt lat="43.11317" lon="0.86479">
        <ele>354.012</ele>
        <time>2020-06-02T02:01:00Z</time>
      </trkpt>
      <trkpt lat="43.11475" lon="0.86482">
        <ele>363.661</ele>
        <time>2020-06-02T02:00:40Z</time>
      </trkpt>
      <trkpt lat="43.11623" lon="0.86486">
        <ele>379.326</ele>
        <time>2020-06-02T02:00:20Z</time>
      </trkpt>
      <trkpt lat="43.11637" lon="0.86494">
        <ele>380.652</ele>
        <time>2020-06-02T02:00:00Z</time>
      </trkpt>
      <trkpt lat="43.11769" lon="0.86212">
        <ele>387.456</ele>
        <time>2020-06-02T01:59:40Z</time>
      </trkpt>
      <trkpt lat="43.11803" lon="0.86125">
        <ele>390.059</ele>
        <time>2020-06-02T01:59:20Z</time>
      </trkpt>
      <trkpt lat="43.12193" lon="0.85269">
        <ele>401.774</ele>
        <time>2020-06-02T01:57:20Z</time>
      </trkpt>
      <trkpt lat="43.12222" lon="0.85214">
        <ele>403.708</ele>
        <time>2020-06-02T01:57:00Z</time>
      </trkpt>
      <trkpt lat="43.12736" lon="0.85643">
        <ele>336.027</ele>
        <time>2020-06-02T01:55:40Z</time>
      </trkpt>
      <trkpt lat="43.12747" lon="0.85721">
        <ele>335.161</ele>
        <time>2020-06-02T01:55:20Z</time>
      </trkpt>
      <trkpt lat="43.12779" lon="0.85757">
        <ele>335.077</ele>
        <time>2020-06-02T01:55:00Z</time>
      </trkpt>
      <trkpt lat="43.12805" lon="0.8571">
        <ele>335.064</ele>
        <time>2020-06-02T01:54:40Z</time>
      </trkpt>
      <trkpt lat="43.12892" lon="0.85779">
        <ele>335.11</ele>
        <time>2021-05-14T19:51:22Z</time>
      </trkpt>
      <trkpt lat="43.1288" lon="0.85826">
        <ele>334.229</ele>
        <time>2021-05-14T19:51:02Z</time>
      </trkpt>
      <trkpt lat="43.12935" lon="0.8585">
        <ele>336.324</ele>
        <time>2021-05-14T19:50:42Z</time>
      </trkpt>
      <trkpt lat="43.12974" lon="0.85889">
        <ele>337.17</ele>
        <time>2021-05-14T19:50:22Z</time>
      </trkpt>
      <trkpt lat="43.1299" lon="0.85884">
        <ele>338.344</ele>
        <time>2021-05-14T19:50:02Z</time>
      </trkpt>
      <trkpt lat="43.12999" lon="0.85859">
        <ele>339.017</ele>
        <time>2020-06-02T01:54:20Z</time>
      </trkpt>
      <trkpt lat="43.1316" lon="0.85933">
        <ele>354.122</ele>
        <time>2020-06-02T01:54:00Z</time>
      </trkpt>
      <trkpt lat="43.13222" lon="0.85955">
        <ele>361.508</ele>
        <time>2020-06-02T01:53:40Z</time>
      </trkpt>
      <trkpt lat="43.13376" lon="0.8602">
        <ele>373.923</ele>
        <time>2020-06-02T01:53:20Z</time>
      </trkpt>
      <trkpt lat="43.13413" lon="0.86002">
        <ele>377.603</ele>
        <time>2020-06-02T01:53:00Z</time>
      </trkpt>
      <trkpt lat="43.13417" lon="0.85947">
        <ele>379.959</ele>
        <time>2020-06-02T01:52:40Z</time>
      </trkpt>
      <trkpt lat="43.1346" lon="0.85947">
        <ele>383.174</ele>
        <time>2020-06-02T01:52:20Z</time>
      </trkpt>
      <trkpt lat="43.13517" lon="0.85967">
        <ele>387.82</ele>
        <time>2020-06-02T01:52:00Z</time>
      </trkpt>
      <trkpt lat="43.13538" lon="0.85969">
        <ele>390.959</ele>
        <time>2020-06-02T01:51:40Z</time>
      </trkpt>
      <trkpt lat="43.13557" lon="0.85982">
        <ele>393.914</ele>
        <time>2020-06-02T01:51:20Z</time>
      </trkpt>
      <trkpt lat="43.13649" lon="0.86031">
        <ele>406.92</ele>
        <time>2020-06-02T01:51:00Z</time>
      </trkpt>
      <trkpt lat="43.13727" lon="0.85948">
        <ele>409.784</ele>
        <time>2020-06-02T01:50:40Z</time>
      </trkpt>
      <trkpt lat="43.13842" lon="0.85785">
        <ele>420.057</ele>
        <time>2020-06-02T01:50:20Z</time>
      </trkpt>
      <trkpt lat="43.13889" lon="0.85735">
        <ele>420.082</ele>
        <time>2020-06-02T01:50:00Z</time>
      </trkpt>
      <trkpt lat="43.13947" lon="0.85647">
        <ele>417.508</ele>
        <time>2020-06-02T01:49:40Z</time>
      </trkpt>
      <trkpt lat="43.13961" lon="0.85617">
        <ele>417.614</ele>
        <time>2020-06-02T01:49:20Z</time>
      </trkpt>
      <trkpt lat="43.13986" lon="0.85649">
        <ele>414.359</ele>
        <time>2020-06-02T01:49:00Z</time>
      </trkpt>
      <trkpt lat="43.14041" lon="0.85746">
        <ele>404.356</ele>
        <time>2020-06-02T01:48:40Z</time>
      </trkpt>
      <trkpt lat="43.14099" lon="0.85778">
        <ele>404.743</ele>
        <time>2020-06-02T01:48:20Z</time>
      </trkpt>
      <trkpt lat="43.14233" lon="0.85844">
        <ele>413.289</ele>
        <time>2020-06-02T01:48:00Z</time>
      </trkpt>
      <trkpt lat="43.1418" lon="0.86059">
        <ele>412.028</ele>
        <time>2020-06-02T01:47:40Z</time>
      </trkpt>
      <trkpt lat="43.14161" lon="0.86159">
        <ele>410.713</ele>
        <time>2020-06-02T01:47:20Z</time>
      </trkpt>
      <trkpt lat="43.14166" lon="0.86222">
        <ele>408.179</ele>
        <time>2020-06-02T01:47:00Z</time>
      </trkpt>
      <trkpt lat="43.14165" lon="0.86308">
        <ele>405.063</ele>
        <time>2020-06-02T01:46:40Z</time>
      </trkpt>
      <trkpt lat="43.14169" lon="0.86352">
        <ele>401.476</ele>
        <time>2021-05-14T19:41:42Z</time>
      </trkpt>
      <trkpt lat="43.14245" lon="0.86684">
        <ele>383.651</ele>
        <time>2020-06-02T01:45:40Z</time>
      </trkpt>
      <trkpt lat="43.14244" lon="0.86743">
        <ele>382.508</ele>
        <time>2020-06-02T01:45:20Z</time>
      </trkpt>
      <trkpt lat="43.14368" lon="0.86851">
        <ele>370.211</ele>
        <time>2020-06-02T01:45:00Z</time>
      </trkpt>
      <trkpt lat="43.14362" lon="0.86877">
        <ele>370.047</ele>
        <time>2020-06-02T01:44:40Z</time>
      </trkpt>
      <trkpt lat="43.14354" lon="0.87015">
        <ele>370.045</ele>
        <time>2020-06-02T01:44:20Z</time>
      </trkpt>
      <trkpt lat="43.14351" lon="0.87038">
        <ele>370.073</ele>
        <time>2020-06-02T01:44:00Z</time>
      </trkpt>
      <trkpt lat="43.14358" lon="0.87097">
        <ele>370.059</ele>
        <time>2020-06-02T01:43:40Z</time>
      </trkpt>
      <trkpt lat="43.14355" lon="0.87142">
        <ele>370.058</ele>
        <time>2020-06-02T01:43:20Z</time>
      </trkpt>
      <trkpt lat="43.14323" lon="0.8727">
        <ele>370.033</ele>
        <time>2020-06-02T01:43:00Z</time>
      </trkpt>
      <trkpt lat="43.1428" lon="0.87413">
        <ele>371.159</ele>
        <time>2020-06-02T01:42:40Z</time>
      </trkpt>
      <trkpt lat="43.14203" lon="0.87584">
        <ele>372.363</ele>
        <time>2020-06-02T01:42:20Z</time>
      </trkpt>
      <trkpt lat="43.14172" lon="0.87609">
        <ele>370.496</ele>
        <time>2020-06-02T01:42:00Z</time>
      </trkpt>
      <trkpt lat="43.14164" lon="0.87644">
        <ele>370.831</ele>
        <time>2020-06-02T01:41:40Z</time>
      </trkpt>
      <trkpt lat="43.14165" lon="0.87652">
        <ele>370.908</ele>
        <time>2020-06-02T01:41:20Z</time>
      </trkpt>
      <trkpt lat="43.14178" lon="0.87651">
        <ele>371.422</ele>
        <time>2020-06-02T01:41:00Z</time>
      </trkpt>
      <trkpt lat="43.14383" lon="0.87673">
        <ele>380.502</ele>
        <time>2020-06-02T01:40:40Z</time>
      </trkpt>
      <trkpt lat="43.14435" lon="0.87693">
        <ele>380.149</ele>
        <time>2020-06-02T01:40:20Z</time>
      </trkpt>
      <trkpt lat="43.14501" lon="0.87697">
        <ele>378.88</ele>
        <time>2020-06-02T01:40:00Z</time>
      </trkpt>
      <trkpt lat="43.14556" lon="0.87719">
        <ele>379.086</ele>
        <time>2020-06-02T01:39:40Z</time>
      </trkpt>
      <trkpt lat="43.14577" lon="0.87739">
        <ele>378.995</ele>
        <time>2020-06-02T01:39:20Z</time>
      </trkpt>
      <trkpt lat="43.14543" lon="0.87789">
        <ele>376.41</ele>
        <time>2020-06-02T01:39:00Z</time>
      </trkpt>
      <trkpt lat="43.14537" lon="0.87996">
        <ele>382.736</ele>
        <time>2020-06-02T01:38:40Z</time>
      </trkpt>
      <trkpt lat="43.14535" lon="0.88029">
        <ele>385.89</ele>
        <time>2020-06-02T01:38:20Z</time>
      </trkpt>
      <trkpt lat="43.14531" lon="0.88165">
        <ele>394.743</ele>
        <time>2020-06-02T01:38:00Z</time>
      </trkpt>
      <trkpt lat="43.14551" lon="0.88223">
        <ele>397.418</ele>
        <time>2020-06-02T01:37:40Z</time>
      </trkpt>
      <trkpt lat="43.14564" lon="0.88307">
        <ele>402.008</ele>
        <time>2020-06-02T01:37:20Z</time>
      </trkpt>
      <trkpt lat="43.14547" lon="0.88363">
        <ele>405.103</ele>
        <time>2020-06-02T01:37:00Z</time>
      </trkpt>
      <trkpt lat="43.14519" lon="0.88526">
        <ele>410.021</ele>
        <time>2020-06-02T01:36:40Z</time>
      </trkpt>
      <trkpt lat="43.14509" lon="0.88634">
        <ele>411.111</ele>
        <time>2020-06-02T01:36:20Z</time>
      </trkpt>
      <trkpt lat="43.14464" lon="0.88791">
        <ele>410.174</ele>
        <time>2020-06-02T01:36:00Z</time>
      </trkpt>
      <trkpt lat="43.14464" lon="0.88833">
        <ele>412.13</ele>
        <time>2020-06-02T01:35:40Z</time>
      </trkpt>
      <trkpt lat="43.14454" lon="0.88894">
        <ele>413.919</ele>
        <time>2020-06-02T01:35:20Z</time>
      </trkpt>
      <trkpt lat="43.14461" lon="0.88958">
        <ele>417.344</ele>
        <time>2020-06-02T01:35:00Z</time>
      </trkpt>
      <trkpt lat="43.14459" lon="0.89041">
        <ele>418.81</ele>
        <time>2020-06-02T01:34:40Z</time>
      </trkpt>
      <trkpt lat="43.14467" lon="0.89065">
        <ele>419.664</ele>
        <time>2020-06-02T01:34:20Z</time>
      </trkpt>
      <trkpt lat="43.14532" lon="0.89112">
        <ele>420.047</ele>
        <time>2020-06-02T01:34:00Z</time>
      </trkpt>
      <trkpt lat="43.14428" lon="0.89377">
        <ele>412.042</ele>
        <time>2020-06-02T01:33:40Z</time>
      </trkpt>
      <trkpt lat="43.14356" lon="0.89344">
        <ele>405.308</ele>
        <time>2020-06-02T01:33:20Z</time>
      </trkpt>
      <trkpt lat="43.14271" lon="0.89316">
        <ele>395.811</ele>
        <time>2020-06-02T01:33:00Z</time>
      </trkpt>
      <trkpt lat="43.14222" lon="0.89305">
        <ele>389.056</ele>
        <time>2020-06-02T01:32:40Z</time>
      </trkpt>
      <trkpt lat="43.14207" lon="0.89305">
        <ele>387.954</ele>
        <time>2020-06-02T01:32:20Z</time>
      </trkpt>
      <trkpt lat="43.14173" lon="0.89207">
        <ele>381.132</ele>
        <time>2020-06-02T01:32:00Z</time>
      </trkpt>
      <trkpt lat="43.14133" lon="0.88992">
        <ele>378.088</ele>
        <time>2020-06-02T01:31:40Z</time>
      </trkpt>
      <trkpt lat="43.14102" lon="0.89001">
        <ele>373.727</ele>
        <time>2020-06-02T01:31:20Z</time>
      </trkpt>
      <trkpt lat="43.14084" lon="0.89033">
        <ele>372.372</ele>
        <time>2020-06-02T01:31:00Z</time>
      </trkpt>
      <trkpt lat="43.14054" lon="0.89155">
        <ele>370.988</ele>
        <time>2020-06-02T01:30:40Z</time>
      </trkpt>
      <trkpt lat="43.14052" lon="0.89191">
        <ele>371.612</ele>
        <time>2020-06-02T01:30:20Z</time>
      </trkpt>
      <trkpt lat="43.14049" lon="0.89221">
        <ele>370.645</ele>
        <time>2020-06-02T01:30:00Z</time>
      </trkpt>
      <trkpt lat="43.1404" lon="0.89274">
        <ele>369.84</ele>
        <time>2020-06-02T01:29:20Z</time>
      </trkpt>
      <trkpt lat="43.14034" lon="0.89289">
        <ele>369.908</ele>
        <time>2020-06-02T01:29:00Z</time>
      </trkpt>
      <trkpt lat="43.1398" lon="0.89385">
        <ele>368.613</ele>
        <time>2020-06-02T01:27:20Z</time>
      </trkpt>
      <trkpt lat="43.13945" lon="0.89472">
        <ele>366.149</ele>
        <time>2020-06-02T01:26:20Z</time>
      </trkpt>
      <trkpt lat="43.13927" lon="0.89534">
        <ele>364.337</ele>
        <time>2020-06-02T01:25:40Z</time>
      </trkpt>
      <trkpt lat="43.13921" lon="0.89577">
        <ele>362.55</ele>
        <time>2020-06-02T01:25:00Z</time>
      </trkpt>
      <trkpt lat="43.13919" lon="0.8961">
        <ele>361.466</ele>
        <time>2020-06-02T01:24:40Z</time>
      </trkpt>
      <trkpt lat="43.13915" lon="0.89632">
        <ele>360.815</ele>
        <time>2020-06-02T01:24:20Z</time>
      </trkpt>
      <trkpt lat="43.13909" lon="0.89632">
        <ele>360.24</ele>
        <time>2020-06-02T01:24:00Z</time>
      </trkpt>
      <trkpt lat="43.13902" lon="0.8964">
        <ele>359.436</ele>
        <time>2020-06-02T01:23:20Z</time>
      </trkpt>
      <trkpt lat="43.13894" lon="0.89663">
        <ele>358.77</ele>
        <time>2020-06-02T01:22:40Z</time>
      </trkpt>
      <trkpt lat="43.13882" lon="0.897">
        <ele>358.023</ele>
        <time>2020-06-02T01:21:40Z</time>
      </trkpt>
      <trkpt lat="43.13892" lon="0.89787">
        <ele>360.498</ele>
        <time>2020-06-02T01:21:00Z</time>
      </trkpt>
      <trkpt lat="43.1389" lon="0.89839">
        <ele>360.408</ele>
        <time>2020-06-02T01:20:20Z</time>
      </trkpt>
      <trkpt lat="43.13875" lon="0.8992">
        <ele>358.811</ele>
        <time>2020-06-02T01:19:20Z</time>
      </trkpt>
      <trkpt lat="43.13856" lon="0.89991">
        <ele>350.965</ele>
        <time>2020-06-02T01:18:40Z</time>
      </trkpt>
      <trkpt lat="43.13833" lon="0.90066">
        <ele>338.815</ele>
        <time>2020-06-02T01:18:00Z</time>
      </trkpt>
      <trkpt lat="43.13826" lon="0.90098">
        <ele>334.026</ele>
        <time>2020-06-02T01:17:40Z</time>
      </trkpt>
      <trkpt lat="43.13825" lon="0.90112">
        <ele>332.042</ele>
        <time>2020-06-02T01:17:20Z</time>
      </trkpt>
      <trkpt lat="43.13826" lon="0.90119">
        <ele>331.551</ele>
        <time>2020-06-02T01:17:00Z</time>
      </trkpt>
      <trkpt lat="43.13843" lon="0.90131">
        <ele>332.366</ele>
        <time>2020-06-02T01:16:40Z</time>
      </trkpt>
      <trkpt lat="43.13853" lon="0.90158">
        <ele>332.122</ele>
        <time>2020-06-02T01:16:20Z</time>
      </trkpt>
      <trkpt lat="43.13841" lon="0.90203">
        <ele>329.516</ele>
        <time>2020-06-02T01:16:00Z</time>
      </trkpt>
      <trkpt lat="43.13841" lon="0.90238">
        <ele>328.779</ele>
        <time>2020-06-02T01:15:40Z</time>
      </trkpt>
      <trkpt lat="43.13814" lon="0.90364">
        <ele>322.574</ele>
        <time>2020-06-02T01:15:20Z</time>
      </trkpt>
      <trkpt lat="43.13807" lon="0.90393">
        <ele>321.108</ele>
        <time>2020-06-02T01:15:00Z</time>
      </trkpt>
      <trkpt lat="43.13788" lon="0.90482">
        <ele>320.014</ele>
        <time>2020-06-02T01:14:40Z</time>
      </trkpt>
      <trkpt lat="43.13774" lon="0.90513">
        <ele>320.013</ele>
        <time>2020-06-02T01:14:20Z</time>
      </trkpt>
      <trkpt lat="43.13745" lon="0.9054">
        <ele>320.072</ele>
        <time>2020-06-02T01:14:00Z</time>
      </trkpt>
      <trkpt lat="43.13714" lon="0.90589">
        <ele>318.023</ele>
        <time>2020-06-02T01:13:40Z</time>
      </trkpt>
      <trkpt lat="43.13714" lon="0.90632">
        <ele>315.359</ele>
        <time>2020-06-02T01:13:20Z</time>
      </trkpt>
      <trkpt lat="43.13713" lon="0.90661">
        <ele>313.998</ele>
        <time>2020-06-02T01:13:00Z</time>
      </trkpt>
      <trkpt lat="43.13707" lon="0.90726">
        <ele>312.553</ele>
        <time>2020-06-02T01:12:40Z</time>
      </trkpt>
      <trkpt lat="43.137" lon="0.90779">
        <ele>310.499</ele>
        <time>2020-06-02T01:12:20Z</time>
      </trkpt>
      <trkpt lat="43.13709" lon="0.90852">
        <ele>310.093</ele>
        <time>2020-06-02T01:12:00Z</time>
      </trkpt>
      <trkpt lat="43.13705" lon="0.90896">
        <ele>310.156</ele>
        <time>2020-06-02T01:11:40Z</time>
      </trkpt>
      <trkpt lat="43.13686" lon="0.9094">
        <ele>310.031</ele>
        <time>2020-06-02T01:11:20Z</time>
      </trkpt>
      <trkpt lat="43.13675" lon="0.90959">
        <ele>310.208</ele>
        <time>2020-06-02T01:11:00Z</time>
      </trkpt>
      <trkpt lat="43.13665" lon="0.90981">
        <ele>310.015</ele>
        <time>2020-06-02T01:10:40Z</time>
      </trkpt>
      <trkpt lat="43.13663" lon="0.90994">
        <ele>310.005</ele>
        <time>2020-06-02T01:10:20Z</time>
      </trkpt>
      <trkpt lat="43.13647" lon="0.9111">
        <ele>310.044</ele>
        <time>2020-06-02T01:10:00Z</time>
      </trkpt>
      <trkpt lat="43.13681" lon="0.91129">
        <ele>310.043</ele>
        <time>2020-06-02T01:09:40Z</time>
      </trkpt>
      <trkpt lat="43.13669" lon="0.91171">
        <ele>310.079</ele>
        <time>2020-06-02T01:09:20Z</time>
      </trkpt>
      <trkpt lat="43.13681" lon="0.91174">
        <ele>310.318</ele>
        <time>2020-06-02T01:09:00Z</time>
      </trkpt>
      <trkpt lat="43.13695" lon="0.91172">
        <ele>310.423</ele>
        <time>2020-06-02T01:08:40Z</time>
      </trkpt>
      <trkpt lat="43.13709" lon="0.91185">
        <ele>312.029</ele>
        <time>2020-06-02T01:08:20Z</time>
      </trkpt>
      <trkpt lat="43.13721" lon="0.91212">
        <ele>317.173</ele>
        <time>2020-06-02T01:08:00Z</time>
      </trkpt>
      <trkpt lat="43.13735" lon="0.91252">
        <ele>321.886</ele>
        <time>2020-06-02T01:07:40Z</time>
      </trkpt>
      <trkpt lat="43.13748" lon="0.91344">
        <ele>330.741</ele>
        <time>2020-06-02T01:07:20Z</time>
      </trkpt>
      <trkpt lat="43.13755" lon="0.91408">
        <ele>334.408</ele>
        <time>2020-06-02T01:07:00Z</time>
      </trkpt>
      <trkpt lat="43.13774" lon="0.91482">
        <ele>339.311</ele>
        <time>2020-06-02T01:06:40Z</time>
      </trkpt>
      <trkpt lat="43.13779" lon="0.91533">
        <ele>341.047</ele>
        <time>2020-06-02T01:06:20Z</time>
      </trkpt>
      <trkpt lat="43.13801" lon="0.91613">
        <ele>340.045</ele>
        <time>2020-06-02T01:05:40Z</time>
      </trkpt>
      <trkpt lat="43.1375" lon="0.91622">
        <ele>337.678</ele>
        <time>2020-06-02T01:04:40Z</time>
      </trkpt>
      <trkpt lat="43.13678" lon="0.9161">
        <ele>331.234</ele>
        <time>2020-06-02T01:04:20Z</time>
      </trkpt>
      <trkpt lat="43.13687" lon="0.91705">
        <ele>329.013</ele>
        <time>2021-05-14T19:07:02Z</time>
      </trkpt>
      <trkpt lat="43.13709" lon="0.91737">
        <ele>330.598</ele>
        <time>2020-06-02T01:04:00Z</time>
      </trkpt>
      <trkpt lat="43.13751" lon="0.91766">
        <ele>331.434</ele>
        <time>2020-06-02T01:03:20Z</time>
      </trkpt>
      <trkpt lat="43.13781" lon="0.91783">
        <ele>330.138</ele>
        <time>2020-06-02T01:03:00Z</time>
      </trkpt>
      <trkpt lat="43.138" lon="0.91813">
        <ele>325.211</ele>
        <time>2020-06-02T01:02:40Z</time>
      </trkpt>
      <trkpt lat="43.1377" lon="0.9189">
        <ele>312.996</ele>
        <time>2020-06-02T01:02:20Z</time>
      </trkpt>
      <trkpt lat="43.13786" lon="0.91925">
        <ele>305.108</ele>
        <time>2020-06-02T01:02:00Z</time>
      </trkpt>
      <trkpt lat="43.13911" lon="0.91926">
        <ele>319.526</ele>
        <time>2020-06-02T01:01:00Z</time>
      </trkpt>
      <trkpt lat="43.13985" lon="0.91952">
        <ele>306.415</ele>
        <time>2020-06-02T01:00:20Z</time>
      </trkpt>
      <trkpt lat="43.14039" lon="0.92003">
        <ele>293.198</ele>
        <time>2020-06-02T00:58:40Z</time>
      </trkpt>
      <trkpt lat="43.14065" lon="0.91997">
        <ele>302.79</ele>
        <time>2020-06-02T00:58:20Z</time>
      </trkpt>
      <trkpt lat="43.14134" lon="0.91893">
        <ele>311.656</ele>
        <time>2020-06-02T00:56:40Z</time>
      </trkpt>
      <trkpt lat="43.14184" lon="0.91846">
        <ele>307.045</ele>
        <time>2020-06-02T00:55:40Z</time>
      </trkpt>
      <trkpt lat="43.14231" lon="0.91835">
        <ele>304.75</ele>
        <time>2020-06-02T00:55:20Z</time>
      </trkpt>
      <trkpt lat="43.14291" lon="0.91797">
        <ele>309.576</ele>
        <time>2020-06-02T00:55:00Z</time>
      </trkpt>
      <trkpt lat="43.14325" lon="0.91811">
        <ele>310.19</ele>
        <time>2020-06-02T00:54:40Z</time>
      </trkpt>
      <trkpt lat="43.14346" lon="0.91864">
        <ele>311.313</ele>
        <time>2020-06-02T00:54:20Z</time>
      </trkpt>
      <trkpt lat="43.14366" lon="0.91905">
        <ele>311.078</ele>
        <time>2020-06-02T00:54:00Z</time>
      </trkpt>
      <trkpt lat="43.14391" lon="0.91972">
        <ele>314.708</ele>
        <time>2020-06-02T00:53:40Z</time>
      </trkpt>
      <trkpt lat="43.14406" lon="0.91997">
        <ele>314.109</ele>
        <time>2020-06-02T00:53:20Z</time>
      </trkpt>
      <trkpt lat="43.14416" lon="0.92038">
        <ele>313.554</ele>
        <time>2020-06-02T00:53:00Z</time>
      </trkpt>
      <trkpt lat="43.1443" lon="0.92087">
        <ele>314.714</ele>
        <time>2020-06-02T00:52:40Z</time>
      </trkpt>
      <trkpt lat="43.14431" lon="0.92196">
        <ele>318.57</ele>
        <time>2020-06-02T00:52:20Z</time>
      </trkpt>
      <trkpt lat="43.14441" lon="0.92226">
        <ele>318.416</ele>
        <time>2020-06-02T00:52:00Z</time>
      </trkpt>
      <trkpt lat="43.14455" lon="0.92258">
        <ele>318.385</ele>
        <time>2020-06-02T00:51:40Z</time>
      </trkpt>
      <trkpt lat="43.14472" lon="0.92279">
        <ele>319.04</ele>
        <time>2020-06-02T00:51:20Z</time>
      </trkpt>
      <trkpt lat="43.14495" lon="0.92317">
        <ele>318.696</ele>
        <time>2020-06-02T00:51:00Z</time>
      </trkpt>
      <trkpt lat="43.14509" lon="0.92369">
        <ele>319.93</ele>
        <time>2020-06-02T00:50:40Z</time>
      </trkpt>
      <trkpt lat="43.14524" lon="0.92416">
        <ele>319.523</ele>
        <time>2020-06-02T00:50:20Z</time>
      </trkpt>
      <trkpt lat="43.14546" lon="0.92413">
        <ele>318.988</ele>
        <time>2020-06-02T00:50:00Z</time>
      </trkpt>
      <trkpt lat="43.14574" lon="0.92501">
        <ele>320.008</ele>
        <time>2020-06-02T00:49:40Z</time>
      </trkpt>
      <trkpt lat="43.14615" lon="0.92547">
        <ele>320.003</ele>
        <time>2020-06-02T00:49:20Z</time>
      </trkpt>
      <trkpt lat="43.14605" lon="0.9259">
        <ele>320.021</ele>
        <time>2020-06-02T00:49:00Z</time>
      </trkpt>
      <trkpt lat="43.14561" lon="0.92718">
        <ele>320.311</ele>
        <time>2020-06-02T00:48:40Z</time>
      </trkpt>
      <trkpt lat="43.14537" lon="0.92744">
        <ele>321.171</ele>
        <time>2020-06-02T00:48:20Z</time>
      </trkpt>
      <trkpt lat="43.14326" lon="0.92883">
        <ele>301.547</ele>
        <time>2020-06-02T00:48:00Z</time>
      </trkpt>
      <trkpt lat="43.1432" lon="0.9291">
        <ele>299.176</ele>
        <time>2020-06-02T00:47:40Z</time>
      </trkpt>
      <trkpt lat="43.14322" lon="0.92945">
        <ele>296.811</ele>
        <time>2020-06-02T00:47:20Z</time>
      </trkpt>
      <trkpt lat="43.14304" lon="0.92966">
        <ele>293.957</ele>
        <time>2020-06-02T00:47:00Z</time>
      </trkpt>
      <trkpt lat="43.14215" lon="0.93007">
        <ele>285.021</ele>
        <time>2020-06-02T00:46:40Z</time>
      </trkpt>
      <trkpt lat="43.1422" lon="0.93047">
        <ele>285.094</ele>
        <time>2020-06-02T00:46:20Z</time>
      </trkpt>
      <trkpt lat="43.14221" lon="0.93048">
        <ele>285.099</ele>
        <time>2020-06-02T00:46:00Z</time>
      </trkpt>
      <trkpt lat="43.14238" lon="0.93114">
        <ele>284.508</ele>
        <time>2020-06-02T00:45:40Z</time>
      </trkpt>
      <trkpt lat="43.14261" lon="0.93163">
        <ele>285.105</ele>
        <time>2020-06-02T00:45:20Z</time>
      </trkpt>
      <trkpt lat="43.14279" lon="0.93212">
        <ele>285.041</ele>
        <time>2020-06-02T00:45:00Z</time>
      </trkpt>
      <trkpt lat="43.14331" lon="0.93239">
        <ele>293.121</ele>
        <time>2020-06-02T00:44:40Z</time>
      </trkpt>
      <trkpt lat="43.14423" lon="0.93714">
        <ele>282.755</ele>
        <time>2020-06-02T00:44:20Z</time>
      </trkpt>
      <trkpt lat="43.14472" lon="0.93779">
        <ele>288.881</ele>
        <time>2020-06-02T00:44:00Z</time>
      </trkpt>
      <trkpt lat="43.14546" lon="0.93779">
        <ele>295.32</ele>
        <time>2020-10-31T22:53:05Z</time>
      </trkpt>
      <trkpt lat="43.14688" lon="0.93789">
        <ele>312.045</ele>
        <time>2020-06-02T00:43:00Z</time>
      </trkpt>
      <trkpt lat="43.14737" lon="0.93803">
        <ele>318.111</ele>
        <time>2020-06-02T00:42:40Z</time>
      </trkpt>
      <trkpt lat="43.14805" lon="0.93843">
        <ele>330.755</ele>
        <time>2020-10-31T22:51:25Z</time>
      </trkpt>
      <trkpt lat="43.14848" lon="0.93899">
        <ele>339.898</ele>
        <time>2020-10-31T22:51:05Z</time>
      </trkpt>
      <trkpt lat="43.14937" lon="0.9404">
        <ele>363.163</ele>
        <time>2020-06-02T00:41:40Z</time>
      </trkpt>
      <trkpt lat="43.14979" lon="0.9418">
        <ele>386.608</ele>
        <time>2020-10-31T22:50:25Z</time>
      </trkpt>
      <trkpt lat="43.14989" lon="0.94254">
        <ele>393.921</ele>
        <time>2020-06-02T00:40:40Z</time>
      </trkpt>
      <trkpt lat="43.15006" lon="0.94256">
        <ele>400.029</ele>
        <time>2020-10-31T22:49:45Z</time>
      </trkpt>
      <trkpt lat="43.15037" lon="0.94227">
        <ele>397.566</ele>
        <time>2020-10-31T22:49:25Z</time>
      </trkpt>
      <trkpt lat="43.15052" lon="0.94194">
        <ele>395.553</ele>
        <time>2020-10-31T22:49:05Z</time>
      </trkpt>
      <trkpt lat="43.15087" lon="0.94152">
        <ele>392.779</ele>
        <time>2020-10-31T22:48:45Z</time>
      </trkpt>
      <trkpt lat="43.15124" lon="0.94157">
        <ele>387.848</ele>
        <time>2020-06-02T00:37:40Z</time>
      </trkpt>
      <trkpt lat="43.15163" lon="0.94152">
        <ele>384.983</ele>
        <time>2020-06-02T00:37:20Z</time>
      </trkpt>
      <trkpt lat="43.15252" lon="0.94271">
        <ele>367.339</ele>
        <time>2020-10-31T22:47:45Z</time>
      </trkpt>
      <trkpt lat="43.15265" lon="0.94324">
        <ele>362.913</ele>
        <time>2020-06-02T00:36:40Z</time>
      </trkpt>
      <trkpt lat="43.15271" lon="0.94394">
        <ele>359.576</ele>
        <time>2020-10-31T22:47:05Z</time>
      </trkpt>
      <trkpt lat="43.15283" lon="0.94458">
        <ele>359.141</ele>
        <time>2020-10-31T22:46:45Z</time>
      </trkpt>
      <trkpt lat="43.15295" lon="0.94474">
        <ele>359.108</ele>
        <time>2020-06-02T00:35:40Z</time>
      </trkpt>
      <trkpt lat="43.15334" lon="0.94493">
        <ele>357.209</ele>
        <time>2020-10-31T22:46:05Z</time>
      </trkpt>
      <trkpt lat="43.15352" lon="0.94524">
        <ele>352.181</ele>
        <time>2020-06-02T00:35:00Z</time>
      </trkpt>
      <trkpt lat="43.15379" lon="0.94607">
        <ele>344.041</ele>
        <time>2020-06-02T00:34:40Z</time>
      </trkpt>
      <trkpt lat="43.154" lon="0.94633">
        <ele>340.958</ele>
        <time>2020-06-02T00:34:20Z</time>
      </trkpt>
      <trkpt lat="43.15439" lon="0.94632">
        <ele>339.894</ele>
        <time>2020-06-02T00:34:00Z</time>
      </trkpt>
      <trkpt lat="43.15449" lon="0.94639">
        <ele>339.743</ele>
        <time>2020-06-02T00:33:40Z</time>
      </trkpt>
      <trkpt lat="43.15494" lon="0.94694">
        <ele>332.428</ele>
        <time>2020-06-02T00:33:20Z</time>
      </trkpt>
      <trkpt lat="43.15525" lon="0.94777">
        <ele>323.974</ele>
        <time>2020-06-02T00:33:00Z</time>
      </trkpt>
      <trkpt lat="43.15586" lon="0.9483">
        <ele>315.478</ele>
        <time>2020-06-02T00:32:40Z</time>
      </trkpt>
      <trkpt lat="43.15617" lon="0.94849">
        <ele>312.951</ele>
        <time>2020-10-31T22:43:05Z</time>
      </trkpt>
      <trkpt lat="43.15717" lon="0.9486">
        <ele>293.916</ele>
        <time>2020-06-02T00:32:00Z</time>
      </trkpt>
      <trkpt lat="43.15776" lon="0.94618">
        <ele>281.708</ele>
        <time>2020-10-31T22:42:25Z</time>
      </trkpt>
      <trkpt lat="43.15857" lon="0.94504">
        <ele>286.427</ele>
        <time>2020-10-31T22:42:05Z</time>
      </trkpt>
      <trkpt lat="43.1588" lon="0.94489">
        <ele>288.307</ele>
        <time>2020-10-31T22:41:45Z</time>
      </trkpt>
      <trkpt lat="43.1591" lon="0.94497">
        <ele>289.699</ele>
        <time>2020-10-31T22:41:25Z</time>
      </trkpt>
      <trkpt lat="43.15979" lon="0.94574">
        <ele>290.937</ele>
        <time>2020-10-31T22:41:05Z</time>
      </trkpt>
      <trkpt lat="43.15998" lon="0.94634">
        <ele>289.013</ele>
        <time>2020-10-31T22:40:45Z</time>
      </trkpt>
      <trkpt lat="43.16022" lon="0.9467">
        <ele>288.872</ele>
        <time>2020-10-31T22:40:25Z</time>
      </trkpt>
      <trkpt lat="43.16035" lon="0.94708">
        <ele>286.537</ele>
        <time>2020-10-31T22:40:05Z</time>
      </trkpt>
      <trkpt lat="43.16069" lon="0.94739">
        <ele>288.433</ele>
        <time>2020-10-31T22:39:45Z</time>
      </trkpt>
      <trkpt lat="43.16081" lon="0.94791">
        <ele>286.137</ele>
        <time>2020-10-31T22:39:25Z</time>
      </trkpt>
      <trkpt lat="43.16102" lon="0.94841">
        <ele>288.28</ele>
        <time>2020-10-31T22:39:05Z</time>
      </trkpt>
      <trkpt lat="43.16101" lon="0.94904">
        <ele>286.355</ele>
        <time>2020-10-31T22:38:45Z</time>
      </trkpt>
      <trkpt lat="43.16085" lon="0.9498">
        <ele>281.808</ele>
        <time>2020-10-31T22:38:25Z</time>
      </trkpt>
      <trkpt lat="43.16072" lon="0.95024">
        <ele>281.726</ele>
        <time>2020-10-31T22:38:05Z</time>
      </trkpt>
      <trkpt lat="43.16085" lon="0.95096">
        <ele>283.06</ele>
        <time>2020-10-31T22:37:45Z</time>
      </trkpt>
      <trkpt lat="43.16082" lon="0.95154">
        <ele>282.086</ele>
        <time>2020-10-31T22:37:25Z</time>
      </trkpt>
      <trkpt lat="43.16067" lon="0.95233">
        <ele>286.278</ele>
        <time>2020-06-02T00:27:40Z</time>
      </trkpt>
      <trkpt lat="43.16078" lon="0.95231">
        <ele>290.784</ele>
        <time>2020-06-02T00:27:20Z</time>
      </trkpt>
      <trkpt lat="43.16093" lon="0.95214">
        <ele>294.283</ele>
        <time>2020-06-02T00:27:00Z</time>
      </trkpt>
      <trkpt lat="43.16104" lon="0.95161">
        <ele>289.148</ele>
        <time>2020-06-02T00:26:40Z</time>
      </trkpt>
      <trkpt lat="43.16117" lon="0.95158">
        <ele>292.264</ele>
        <time>2020-06-02T00:26:20Z</time>
      </trkpt>
      <trkpt lat="43.16174" lon="0.95215">
        <ele>304.838</ele>
        <time>2020-06-02T00:26:00Z</time>
      </trkpt>
      <trkpt lat="43.16225" lon="0.95229">
        <ele>309.361</ele>
        <time>2020-06-02T00:25:40Z</time>
      </trkpt>
      <trkpt lat="43.16247" lon="0.95221">
        <ele>309.976</ele>
        <time>2020-06-02T00:25:20Z</time>
      </trkpt>
      <trkpt lat="43.16273" lon="0.95198">
        <ele>310.008</ele>
        <time>2020-06-02T00:25:00Z</time>
      </trkpt>
      <trkpt lat="43.16337" lon="0.95166">
        <ele>310.021</ele>
        <time>2020-06-02T00:24:40Z</time>
      </trkpt>
      <trkpt lat="43.16383" lon="0.95096">
        <ele>313.665</ele>
        <time>2020-06-02T00:24:20Z</time>
      </trkpt>
      <trkpt lat="43.16408" lon="0.95077">
        <ele>315.893</ele>
        <time>2020-06-02T00:24:00Z</time>
      </trkpt>
      <trkpt lat="43.16431" lon="0.9507">
        <ele>318.012</ele>
        <time>2020-06-02T00:23:40Z</time>
      </trkpt>
      <trkpt lat="43.16448" lon="0.95018">
        <ele>320.078</ele>
        <time>2020-06-02T00:23:20Z</time>
      </trkpt>
      <trkpt lat="43.16492" lon="0.94959">
        <ele>323.217</ele>
        <time>2020-06-02T00:23:00Z</time>
      </trkpt>
      <trkpt lat="43.16502" lon="0.94932">
        <ele>324.822</ele>
        <time>2020-06-02T00:22:40Z</time>
      </trkpt>
      <trkpt lat="43.16537" lon="0.94877">
        <ele>331.838</ele>
        <time>2020-06-02T00:22:20Z</time>
      </trkpt>
      <trkpt lat="43.16564" lon="0.94828">
        <ele>336.222</ele>
        <time>2020-06-02T00:22:00Z</time>
      </trkpt>
      <trkpt lat="43.16576" lon="0.94829">
        <ele>337.935</ele>
        <time>2020-06-02T00:21:40Z</time>
      </trkpt>
      <trkpt lat="43.16626" lon="0.94876">
        <ele>341.19</ele>
        <time>2020-06-02T00:21:20Z</time>
      </trkpt>
      <trkpt lat="43.1666" lon="0.94816">
        <ele>349.408</ele>
        <time>2020-06-02T00:21:00Z</time>
      </trkpt>
      <trkpt lat="43.16758" lon="0.94689">
        <ele>366.511</ele>
        <time>2020-06-02T00:20:40Z</time>
      </trkpt>
      <trkpt lat="43.16839" lon="0.94553">
        <ele>378.892</ele>
        <time>2020-10-31T22:29:45Z</time>
      </trkpt>
      <trkpt lat="43.16888" lon="0.94486">
        <ele>383.832</ele>
        <time>2020-10-31T22:29:25Z</time>
      </trkpt>
      <trkpt lat="43.16905" lon="0.94478">
        <ele>382.822</ele>
        <time>2020-06-02T00:19:40Z</time>
      </trkpt>
      <trkpt lat="43.16922" lon="0.94415">
        <ele>383.028</ele>
        <time>2020-10-31T22:28:45Z</time>
      </trkpt>
      <trkpt lat="43.16917" lon="0.94342">
        <ele>387.767</ele>
        <time>2020-10-31T22:28:25Z</time>
      </trkpt>
      <trkpt lat="43.16935" lon="0.94204">
        <ele>397.792</ele>
        <time>2020-06-02T00:18:40Z</time>
      </trkpt>
      <trkpt lat="43.16956" lon="0.94088">
        <ele>402.668</ele>
        <time>2020-06-02T00:18:20Z</time>
      </trkpt>
      <trkpt lat="43.16945" lon="0.9404">
        <ele>407.032</ele>
        <time>2020-10-31T22:27:25Z</time>
      </trkpt>
      <trkpt lat="43.16958" lon="0.93884">
        <ele>415.435</ele>
        <time>2020-06-02T00:17:40Z</time>
      </trkpt>
      <trkpt lat="43.17032" lon="0.93692">
        <ele>416.58</ele>
        <time>2020-06-02T00:17:20Z</time>
      </trkpt>
      <trkpt lat="43.17049" lon="0.9366">
        <ele>415.908</ele>
        <time>2020-06-02T00:17:00Z</time>
      </trkpt>
      <trkpt lat="43.17089" lon="0.93613">
        <ele>415.115</ele>
        <time>2020-06-02T00:16:40Z</time>
      </trkpt>
      <trkpt lat="43.17142" lon="0.93534">
        <ele>412.623</ele>
        <time>2020-06-02T00:16:20Z</time>
      </trkpt>
      <trkpt lat="43.17178" lon="0.93486">
        <ele>410.933</ele>
        <time>2020-06-02T00:16:00Z</time>
      </trkpt>
      <trkpt lat="43.17248" lon="0.9345">
        <ele>410.083</ele>
        <time>2020-06-02T00:15:40Z</time>
      </trkpt>
      <trkpt lat="43.17323" lon="0.93402">
        <ele>410.069</ele>
        <time>2020-06-02T00:15:20Z</time>
      </trkpt>
      <trkpt lat="43.17443" lon="0.93299">
        <ele>410.018</ele>
        <time>2020-06-02T00:15:00Z</time>
      </trkpt>
      <trkpt lat="43.17449" lon="0.93315">
        <ele>409.943</ele>
        <time>2020-06-02T00:14:40Z</time>
      </trkpt>
      <trkpt lat="43.17467" lon="0.93326">
        <ele>409.499</ele>
        <time>2020-06-02T00:14:20Z</time>
      </trkpt>
      <trkpt lat="43.17494" lon="0.93331">
        <ele>407.083</ele>
        <time>2020-06-02T00:14:00Z</time>
      </trkpt>
      <trkpt lat="43.17538" lon="0.93334">
        <ele>400.536</ele>
        <time>2020-06-02T00:13:40Z</time>
      </trkpt>
      <trkpt lat="43.17581" lon="0.93324">
        <ele>399.121</ele>
        <time>2020-06-02T00:13:20Z</time>
      </trkpt>
      <trkpt lat="43.17578" lon="0.9335">
        <ele>393.308</ele>
        <time>2020-06-02T00:13:00Z</time>
      </trkpt>
      <trkpt lat="43.17538" lon="0.93404">
        <ele>388.411</ele>
        <time>2020-06-02T00:12:40Z</time>
      </trkpt>
      <trkpt lat="43.17544" lon="0.93464">
        <ele>379.847</ele>
        <time>2020-06-02T00:12:20Z</time>
      </trkpt>
      <trkpt lat="43.17546" lon="0.9356">
        <ele>367.045</ele>
        <time>2020-06-02T00:12:00Z</time>
      </trkpt>
      <trkpt lat="43.17565" lon="0.93604">
        <ele>363.974</ele>
        <time>2020-06-02T00:11:40Z</time>
      </trkpt>
      <trkpt lat="43.1757" lon="0.93687">
        <ele>358.96</ele>
        <time>2020-06-02T00:11:20Z</time>
      </trkpt>
      <trkpt lat="43.17601" lon="0.93732">
        <ele>357.299</ele>
        <time>2020-06-02T00:11:00Z</time>
      </trkpt>
      <trkpt lat="43.17609" lon="0.93777">
        <ele>353.944</ele>
        <time>2020-10-31T22:20:05Z</time>
      </trkpt>
      <trkpt lat="43.17675" lon="0.93743">
        <ele>362.17</ele>
        <time>2020-06-02T00:09:00Z</time>
      </trkpt>
      <trkpt lat="43.17713" lon="0.93965">
        <ele>341.074</ele>
        <time>2020-06-02T00:08:40Z</time>
      </trkpt>
      <trkpt lat="43.17636" lon="0.94125">
        <ele>333.657</ele>
        <time>2020-06-02T00:07:40Z</time>
      </trkpt>
      <trkpt lat="43.17632" lon="0.94178">
        <ele>332.212</ele>
        <time>2020-06-02T00:07:20Z</time>
      </trkpt>
      <trkpt lat="43.17648" lon="0.94237">
        <ele>330.608</ele>
        <time>2020-06-02T00:07:00Z</time>
      </trkpt>
      <trkpt lat="43.17678" lon="0.94297">
        <ele>330.314</ele>
        <time>2020-06-02T00:06:40Z</time>
      </trkpt>
      <trkpt lat="43.17711" lon="0.94334">
        <ele>328.404</ele>
        <time>2020-06-02T00:06:20Z</time>
      </trkpt>
      <trkpt lat="43.17718" lon="0.94473">
        <ele>320.253</ele>
        <time>2020-06-02T00:06:00Z</time>
      </trkpt>
      <trkpt lat="43.17751" lon="0.9461">
        <ele>320.016</ele>
        <time>2020-06-02T00:05:40Z</time>
      </trkpt>
      <trkpt lat="43.17728" lon="0.94642">
        <ele>320.092</ele>
        <time>2020-06-02T00:05:20Z</time>
      </trkpt>
      <trkpt lat="43.17761" lon="0.94661">
        <ele>320.051</ele>
        <time>2020-06-02T00:05:00Z</time>
      </trkpt>
      <trkpt lat="43.17787" lon="0.94664">
        <ele>320.366</ele>
        <time>2020-06-02T00:04:40Z</time>
      </trkpt>
      <trkpt lat="43.17809" lon="0.94657">
        <ele>320.612</ele>
        <time>2020-06-02T00:04:20Z</time>
      </trkpt>
      <trkpt lat="43.1787" lon="0.94659">
        <ele>321.886</ele>
        <time>2020-06-02T00:04:00Z</time>
      </trkpt>
      <trkpt lat="43.18037" lon="0.94613">
        <ele>330.089</ele>
        <time>2020-06-02T00:03:40Z</time>
      </trkpt>
      <trkpt lat="43.18103" lon="0.94643">
        <ele>338.084</ele>
        <time>2020-06-02T00:03:20Z</time>
      </trkpt>
      <trkpt lat="43.18119" lon="0.94633">
        <ele>339.408</ele>
        <time>2020-06-02T00:03:00Z</time>
      </trkpt>
      <trkpt lat="43.18148" lon="0.94603">
        <ele>340.625</ele>
        <time>2020-06-02T00:02:40Z</time>
      </trkpt>
      <trkpt lat="43.18181" lon="0.94594">
        <ele>344.205</ele>
        <time>2020-06-02T00:02:20Z</time>
      </trkpt>
      <trkpt lat="43.18212" lon="0.94574">
        <ele>347.579</ele>
        <time>2020-06-02T00:02:00Z</time>
      </trkpt>
      <trkpt lat="43.18248" lon="0.94519">
        <ele>347.746</ele>
        <time>2020-06-02T00:01:40Z</time>
      </trkpt>
      <trkpt lat="43.18247" lon="0.94538">
        <ele>350.252</ele>
        <time>2020-06-02T00:01:20Z</time>
      </trkpt>
      <trkpt lat="43.18173" lon="0.94688">
        <ele>354.581</ele>
        <time>2020-06-02T00:01:00Z</time>
      </trkpt>
      <trkpt lat="43.18143" lon="0.94721">
        <ele>351.066</ele>
        <time>2020-06-02T00:00:40Z</time>
      </trkpt>
      <trkpt lat="43.1814" lon="0.94752">
        <ele>351.492</ele>
        <time>2020-06-02T00:00:20Z</time>
      </trkpt>
      <trkpt lat="43.18137" lon="0.94941">
        <ele>357.866</ele>
        <time>2020-06-02T00:00:00Z</time>
      </trkpt>
      <trkpt lat="43.18161" lon="0.95081">
        <ele>353.579</ele>
        <time>2020-06-01T23:59:40Z</time>
      </trkpt>
      <trkpt lat="43.18191" lon="0.95097">
        <ele>355.254</ele>
        <time>2020-06-01T23:59:00Z</time>
      </trkpt>
      <trkpt lat="43.18187" lon="0.95231">
        <ele>345.508</ele>
        <time>2020-06-01T23:58:40Z</time>
      </trkpt>
      <trkpt lat="43.18208" lon="0.95314">
        <ele>341.814</ele>
        <time>2020-06-01T23:58:20Z</time>
      </trkpt>
      <trkpt lat="43.18218" lon="0.95379">
        <ele>337.413</ele>
        <time>2020-06-01T23:58:00Z</time>
      </trkpt>
      <trkpt lat="43.18251" lon="0.95447">
        <ele>334.972</ele>
        <time>2020-06-01T23:57:40Z</time>
      </trkpt>
      <trkpt lat="43.18236" lon="0.95691">
        <ele>324.646</ele>
        <time>2020-06-01T23:57:00Z</time>
      </trkpt>
      <trkpt lat="43.18246" lon="0.95757">
        <ele>323.522</ele>
        <time>2020-06-01T23:56:40Z</time>
      </trkpt>
      <trkpt lat="43.18236" lon="0.95787">
        <ele>321.741</ele>
        <time>2020-06-01T23:56:20Z</time>
      </trkpt>
      <trkpt lat="43.18271" lon="0.95931">
        <ele>320.026</ele>
        <time>2020-06-01T23:56:00Z</time>
      </trkpt>
      <trkpt lat="43.18497" lon="0.9564">
        <ele>339.262</ele>
        <time>2020-06-01T23:53:20Z</time>
      </trkpt>
      <trkpt lat="43.18537" lon="0.9557">
        <ele>339.286</ele>
        <time>2020-06-01T23:53:00Z</time>
      </trkpt>
      <trkpt lat="43.18554" lon="0.95525">
        <ele>339.479</ele>
        <time>2020-06-01T23:52:40Z</time>
      </trkpt>
      <trkpt lat="43.18581" lon="0.95477">
        <ele>337.944</ele>
        <time>2020-06-01T23:52:20Z</time>
      </trkpt>
      <trkpt lat="43.18608" lon="0.95572">
        <ele>322.608</ele>
        <time>2020-06-01T23:52:00Z</time>
      </trkpt>
      <trkpt lat="43.18631" lon="0.9561">
        <ele>320.021</ele>
        <time>2020-06-01T23:51:40Z</time>
      </trkpt>
      <trkpt lat="43.18603" lon="0.95729">
        <ele>317.156</ele>
        <time>2020-06-01T23:51:20Z</time>
      </trkpt>
      <trkpt lat="43.1858" lon="0.95857">
        <ele>309.274</ele>
        <time>2020-06-01T23:51:00Z</time>
      </trkpt>
      <trkpt lat="43.18578" lon="0.95969">
        <ele>306.791</ele>
        <time>2020-06-01T23:50:40Z</time>
      </trkpt>
      <trkpt lat="43.18583" lon="0.96022">
        <ele>306.957</ele>
        <time>2020-10-31T22:00:05Z</time>
      </trkpt>
      <trkpt lat="43.18582" lon="0.96077">
        <ele>305.836</ele>
        <time>2020-06-01T23:50:00Z</time>
      </trkpt>
      <trkpt lat="43.18574" lon="0.96137">
        <ele>303.371</ele>
        <time>2020-06-01T23:49:40Z</time>
      </trkpt>
      <trkpt lat="43.18549" lon="0.96235">
        <ele>300.457</ele>
        <time>2020-06-01T23:49:20Z</time>
      </trkpt>
      <trkpt lat="43.18537" lon="0.96271">
        <ele>300.021</ele>
        <time>2020-06-01T23:49:00Z</time>
      </trkpt>
      <trkpt lat="43.18552" lon="0.96311">
        <ele>300.054</ele>
        <time>2020-06-01T23:48:40Z</time>
      </trkpt>
      <trkpt lat="43.18535" lon="0.96383">
        <ele>300.079</ele>
        <time>2020-06-01T23:48:20Z</time>
      </trkpt>
      <trkpt lat="43.18481" lon="0.96421">
        <ele>300.008</ele>
        <time>2020-06-01T23:48:00Z</time>
      </trkpt>
      <trkpt lat="43.18463" lon="0.96459">
        <ele>299.314</ele>
        <time>2020-06-01T23:47:40Z</time>
      </trkpt>
      <trkpt lat="43.18431" lon="0.96551">
        <ele>295.168</ele>
        <time>2020-06-01T23:47:20Z</time>
      </trkpt>
      <trkpt lat="43.1841" lon="0.96648">
        <ele>294.027</ele>
        <time>2020-06-01T23:47:00Z</time>
      </trkpt>
      <trkpt lat="43.18392" lon="0.9665">
        <ele>290.781</ele>
        <time>2020-06-01T23:46:40Z</time>
      </trkpt>
      <trkpt lat="43.18348" lon="0.96754">
        <ele>288.467</ele>
        <time>2020-06-01T23:46:20Z</time>
      </trkpt>
      <trkpt lat="43.18285" lon="0.96821">
        <ele>287.816</ele>
        <time>2020-06-01T23:46:00Z</time>
      </trkpt>
      <trkpt lat="43.18247" lon="0.96826">
        <ele>287.451</ele>
        <time>2020-06-01T23:45:40Z</time>
      </trkpt>
      <trkpt lat="43.18206" lon="0.96811">
        <ele>286.227</ele>
        <time>2020-06-01T23:45:20Z</time>
      </trkpt>
      <trkpt lat="43.18164" lon="0.96793">
        <ele>285.931</ele>
        <time>2020-06-01T23:45:00Z</time>
      </trkpt>
      <trkpt lat="43.18087" lon="0.96805">
        <ele>284.184</ele>
        <time>2020-06-01T23:44:40Z</time>
      </trkpt>
      <trkpt lat="43.18005" lon="0.96802">
        <ele>285.399</ele>
        <time>2020-06-01T23:44:20Z</time>
      </trkpt>
      <trkpt lat="43.17964" lon="0.96815">
        <ele>284.108</ele>
        <time>2020-06-01T23:44:00Z</time>
      </trkpt>
      <trkpt lat="43.17852" lon="0.96877">
        <ele>279.408</ele>
        <time>2020-06-01T23:43:40Z</time>
      </trkpt>
      <trkpt lat="43.17806" lon="0.96887">
        <ele>278.262</ele>
        <time>2020-06-01T23:43:20Z</time>
      </trkpt>
      <trkpt lat="43.17787" lon="0.96879">
        <ele>278.522</ele>
        <time>2020-06-01T23:43:00Z</time>
      </trkpt>
      <trkpt lat="43.1776" lon="0.969">
        <ele>276.514</ele>
        <time>2020-06-01T23:42:40Z</time>
      </trkpt>
      <trkpt lat="43.17723" lon="0.96945">
        <ele>272.07</ele>
        <time>2020-06-01T23:42:20Z</time>
      </trkpt>
      <trkpt lat="43.17696" lon="0.9696">
        <ele>270.539</ele>
        <time>2020-06-01T23:42:00Z</time>
      </trkpt>
      <trkpt lat="43.17666" lon="0.96958">
        <ele>270.034</ele>
        <time>2020-06-01T23:41:40Z</time>
      </trkpt>
      <trkpt lat="43.17647" lon="0.96965">
        <ele>270.05</ele>
        <time>2020-06-01T23:41:20Z</time>
      </trkpt>
      <trkpt lat="43.17624" lon="0.96998">
        <ele>269.044</ele>
        <time>2020-06-01T23:41:00Z</time>
      </trkpt>
      <trkpt lat="43.17614" lon="0.97032">
        <ele>268.957</ele>
        <time>2020-06-01T23:40:40Z</time>
      </trkpt>
      <trkpt lat="43.17616" lon="0.97086">
        <ele>267.922</ele>
        <time>2020-10-31T21:50:05Z</time>
      </trkpt>
      <trkpt lat="43.17422" lon="0.97334">
        <ele>265.008</ele>
        <time>2020-06-01T23:39:20Z</time>
      </trkpt>
      <trkpt lat="43.17604" lon="0.97528">
        <ele>260.011</ele>
        <time>2020-06-01T23:37:40Z</time>
      </trkpt>
      <trkpt lat="43.17627" lon="0.97536">
        <ele>260.001</ele>
        <time>2020-06-01T23:37:20Z</time>
      </trkpt>
      <trkpt lat="43.17667" lon="0.97528">
        <ele>260.051</ele>
        <time>2020-06-01T23:37:00Z</time>
      </trkpt>
      <trkpt lat="43.17787" lon="0.97464">
        <ele>260.271</ele>
        <time>2020-06-01T23:36:40Z</time>
      </trkpt>
      <trkpt lat="43.17804" lon="0.97462">
        <ele>260.017</ele>
        <time>2020-06-01T23:36:20Z</time>
      </trkpt>
      <trkpt lat="43.1784" lon="0.97466">
        <ele>260.036</ele>
        <time>2020-10-31T21:45:45Z</time>
      </trkpt>
      <trkpt lat="43.17851" lon="0.97439">
        <ele>260.071</ele>
        <time>2020-06-01T23:35:40Z</time>
      </trkpt>
      <trkpt lat="43.17852" lon="0.9739">
        <ele>262.667</ele>
        <time>2020-10-31T21:45:05Z</time>
      </trkpt>
      <trkpt lat="43.17903" lon="0.97363">
        <ele>264.751</ele>
        <time>2020-10-31T21:44:45Z</time>
      </trkpt>
      <trkpt lat="43.1787" lon="0.97257">
        <ele>267.224</ele>
        <time>2020-10-31T21:44:25Z</time>
      </trkpt>
      <trkpt lat="43.1788" lon="0.97245">
        <ele>267.759</ele>
        <time>2020-10-31T21:44:05Z</time>
      </trkpt>
      <trkpt lat="43.17993" lon="0.97322">
        <ele>267.408</ele>
        <time>2020-10-31T21:43:45Z</time>
      </trkpt>
      <trkpt lat="43.18015" lon="0.97329">
        <ele>267.708</ele>
        <time>2020-06-01T23:34:40Z</time>
      </trkpt>
      <trkpt lat="43.1805" lon="0.97314">
        <ele>268.926</ele>
        <time>2020-06-01T23:34:20Z</time>
      </trkpt>
      <trkpt lat="43.18087" lon="0.97274">
        <ele>270.325</ele>
        <time>2020-06-01T23:34:00Z</time>
      </trkpt>
      <trkpt lat="43.18122" lon="0.97254">
        <ele>271.323</ele>
        <time>2020-06-01T23:33:40Z</time>
      </trkpt>
      <trkpt lat="43.18147" lon="0.97256">
        <ele>271.889</ele>
        <time>2020-10-31T21:42:05Z</time>
      </trkpt>
      <trkpt lat="43.18185" lon="0.97268">
        <ele>272.058</ele>
        <time>2020-10-31T21:41:45Z</time>
      </trkpt>
      <trkpt lat="43.18234" lon="0.97287">
        <ele>272.543</ele>
        <time>2020-10-31T21:41:25Z</time>
      </trkpt>
      <trkpt lat="43.18245" lon="0.97285">
        <ele>272.789</ele>
        <time>2020-06-01T23:33:00Z</time>
      </trkpt>
      <trkpt lat="43.18229" lon="0.97254">
        <ele>273.283</ele>
        <time>2020-10-31T21:40:45Z</time>
      </trkpt>
      <trkpt lat="43.1825" lon="0.97257">
        <ele>273.756</ele>
        <time>2020-10-31T21:40:25Z</time>
      </trkpt>
      <trkpt lat="43.18293" lon="0.97286">
        <ele>273.471</ele>
        <time>2020-10-31T21:40:05Z</time>
      </trkpt>
      <trkpt lat="43.18319" lon="0.97332">
        <ele>273.508</ele>
        <time>2020-10-31T21:39:45Z</time>
      </trkpt>
      <trkpt lat="43.18337" lon="0.97429">
        <ele>272.611</ele>
        <time>2020-10-31T21:39:25Z</time>
      </trkpt>
      <trkpt lat="43.18383" lon="0.97525">
        <ele>272.047</ele>
        <time>2020-10-31T21:39:05Z</time>
      </trkpt>
      <trkpt lat="43.18464" lon="0.97595">
        <ele>271.945</ele>
        <time>2020-10-31T21:38:45Z</time>
      </trkpt>
      <trkpt lat="43.18522" lon="0.97677">
        <ele>272.098</ele>
        <time>2020-10-31T21:38:25Z</time>
      </trkpt>
      <trkpt lat="43.18596" lon="0.97811">
        <ele>272.524</ele>
        <time>2020-10-31T21:38:05Z</time>
      </trkpt>
      <trkpt lat="43.18623" lon="0.97838">
        <ele>272.833</ele>
        <time>2020-10-31T21:37:45Z</time>
      </trkpt>
      <trkpt lat="43.18674" lon="0.97861">
        <ele>272.028</ele>
        <time>2020-10-31T21:37:25Z</time>
      </trkpt>
      <trkpt lat="43.18711" lon="0.97877">
        <ele>272.024</ele>
        <time>2020-10-31T21:37:05Z</time>
      </trkpt>
      <trkpt lat="43.18739" lon="0.97909">
        <ele>272.058</ele>
        <time>2020-10-31T21:36:45Z</time>
      </trkpt>
      <trkpt lat="43.1877" lon="0.9799">
        <ele>272.011</ele>
        <time>2020-10-31T21:36:25Z</time>
      </trkpt>
      <trkpt lat="43.18791" lon="0.98032">
        <ele>272.086</ele>
        <time>2020-10-31T21:36:05Z</time>
      </trkpt>
      <trkpt lat="43.18817" lon="0.97992">
        <ele>272.108</ele>
        <time>2020-10-31T21:35:45Z</time>
      </trkpt>
      <trkpt lat="43.1888" lon="0.97949">
        <ele>273.024</ele>
        <time>2020-10-31T21:35:25Z</time>
      </trkpt>
      <trkpt lat="43.18997" lon="0.97891">
        <ele>274.031</ele>
        <time>2020-06-01T23:28:20Z</time>
      </trkpt>
      <trkpt lat="43.19039" lon="0.97851">
        <ele>274.696</ele>
        <time>2020-10-31T21:34:45Z</time>
      </trkpt>
      <trkpt lat="43.1912" lon="0.97812">
        <ele>277.418</ele>
        <time>2020-06-01T23:27:40Z</time>
      </trkpt>
      <trkpt lat="43.19132" lon="0.97817">
        <ele>278.114</ele>
        <time>2020-06-01T23:27:20Z</time>
      </trkpt>
      <trkpt lat="43.19133" lon="0.97904">
        <ele>276.633</ele>
        <time>2020-06-01T23:27:00Z</time>
      </trkpt>
      <trkpt lat="43.19134" lon="0.97968">
        <ele>275.888</ele>
        <time>2020-10-31T21:33:25Z</time>
      </trkpt>
      <trkpt lat="43.19143" lon="0.98009">
        <ele>276.124</ele>
        <time>2020-06-01T23:26:40Z</time>
      </trkpt>
      <trkpt lat="43.19174" lon="0.98112">
        <ele>276.568</ele>
        <time>2020-06-01T23:26:20Z</time>
      </trkpt>
      <trkpt lat="43.19187" lon="0.98173">
        <ele>276.511</ele>
        <time>2020-06-01T23:26:00Z</time>
      </trkpt>
      <trkpt lat="43.19218" lon="0.98243">
        <ele>277.256</ele>
        <time>2020-06-01T23:25:40Z</time>
      </trkpt>
      <trkpt lat="43.19237" lon="0.9827">
        <ele>279.208</ele>
        <time>2020-06-01T23:25:20Z</time>
      </trkpt>
      <trkpt lat="43.19248" lon="0.98289">
        <ele>279.524</ele>
        <time>2020-06-01T23:25:00Z</time>
      </trkpt>
      <trkpt lat="43.19265" lon="0.9833">
        <ele>277.931</ele>
        <time>2020-06-01T23:24:40Z</time>
      </trkpt>
      <trkpt lat="43.19295" lon="0.98392">
        <ele>276.996</ele>
        <time>2020-10-31T21:30:45Z</time>
      </trkpt>
      <trkpt lat="43.19301" lon="0.98421">
        <ele>277.251</ele>
        <time>2020-06-01T23:23:20Z</time>
      </trkpt>
      <trkpt lat="43.19305" lon="0.98447">
        <ele>275.947</ele>
        <time>2020-06-01T23:23:00Z</time>
      </trkpt>
      <trkpt lat="43.19315" lon="0.98482">
        <ele>276.716</ele>
        <time>2020-06-01T23:22:40Z</time>
      </trkpt>
      <trkpt lat="43.19342" lon="0.98552">
        <ele>276.551</ele>
        <time>2020-06-01T23:22:20Z</time>
      </trkpt>
      <trkpt lat="43.19352" lon="0.98583">
        <ele>277.027</ele>
        <time>2020-06-01T23:22:00Z</time>
      </trkpt>
      <trkpt lat="43.19358" lon="0.98606">
        <ele>276.881</ele>
        <time>2020-06-01T23:21:40Z</time>
      </trkpt>
      <trkpt lat="43.19364" lon="0.98637">
        <ele>276.454</ele>
        <time>2020-06-01T23:21:20Z</time>
      </trkpt>
      <trkpt lat="43.19374" lon="0.98719">
        <ele>275.599</ele>
        <time>2020-06-01T23:21:00Z</time>
      </trkpt>
      <trkpt lat="43.19381" lon="0.9878">
        <ele>274.708</ele>
        <time>2020-06-01T23:20:20Z</time>
      </trkpt>
      <trkpt lat="43.19412" lon="0.98857">
        <ele>274.205</ele>
        <time>2020-10-31T21:27:25Z</time>
      </trkpt>
      <trkpt lat="43.19455" lon="0.98927">
        <ele>273.841</ele>
        <time>2020-06-01T23:19:00Z</time>
      </trkpt>
      <trkpt lat="43.19484" lon="0.98958">
        <ele>273.721</ele>
        <time>2020-06-01T23:18:20Z</time>
      </trkpt>
      <trkpt lat="43.19473" lon="0.98979">
        <ele>273.018</ele>
        <time>2020-10-31T21:26:25Z</time>
      </trkpt>
      <trkpt lat="43.19503" lon="0.99068">
        <ele>272.164</ele>
        <time>2020-06-01T23:16:00Z</time>
      </trkpt>
      <trkpt lat="43.19415" lon="0.99149">
        <ele>271.033</ele>
        <time>2020-06-01T23:13:00Z</time>
      </trkpt>
      <trkpt lat="43.19422" lon="0.99162">
        <ele>270.868</ele>
        <time>2020-06-01T23:12:40Z</time>
      </trkpt>
      <trkpt lat="43.19438" lon="0.99172">
        <ele>270.254</ele>
        <time>2020-06-01T23:12:20Z</time>
      </trkpt>
      <trkpt lat="43.19449" lon="0.99181">
        <ele>270.058</ele>
        <time>2020-06-01T23:12:00Z</time>
      </trkpt>
      <trkpt lat="43.1946" lon="0.99199">
        <ele>270.071</ele>
        <time>2020-06-01T23:11:40Z</time>
      </trkpt>
      <trkpt lat="43.19711" lon="0.99734">
        <ele>269.066</ele>
        <time>2020-10-31T21:24:05Z</time>
      </trkpt>
      <trkpt lat="43.19704" lon="0.99772">
        <ele>269.008</ele>
        <time>2020-10-31T21:23:45Z</time>
      </trkpt>
      <trkpt lat="43.19709" lon="0.99832">
        <ele>269.027</ele>
        <time>2020-10-31T21:23:25Z</time>
      </trkpt>
      <trkpt lat="43.19735" lon="0.99981">
        <ele>268.607</ele>
        <time>2020-06-01T23:07:20Z</time>
      </trkpt>
      <trkpt lat="43.19751" lon="1.00039">
        <ele>268.699</ele>
        <time>2020-06-01T23:07:00Z</time>
      </trkpt>
      <trkpt lat="43.19782" lon="1.00171">
        <ele>267.078</ele>
        <time>2020-06-01T23:06:40Z</time>
      </trkpt>
      <trkpt lat="43.19805" lon="1.00287">
        <ele>267.094</ele>
        <time>2020-06-01T23:06:20Z</time>
      </trkpt>
      <trkpt lat="43.19805" lon="1.00294">
        <ele>267</ele>
      </trkpt>
      <trkpt lat="43.1981" lon="1.00336">
        <ele>267</ele>
      </trkpt>
      <trkpt lat="43.19817" lon="1.00443">
        <ele>267</ele>
      </trkpt>
      <trkpt lat="43.19823" lon="1.00488">
        <ele>267</ele>
      </trkpt>
      <trkpt lat="43.1981" lon="1.00529">
        <ele>267</ele>
      </trkpt>
      <trkpt lat="43.19803" lon="1.0059">
        <ele>266.9</ele>
      </trkpt>
      <trkpt lat="43.19794" lon="1.00642">
        <ele>267</ele>
      </trkpt>
      <trkpt lat="43.19794" lon="1.00643">
        <ele>267</ele>
      </trkpt>
      <trkpt lat="43.19783" lon="1.00712">
        <ele>267</ele>
      </trkpt>
      <trkpt lat="43.19793" lon="1.00744">
        <ele>266.6</ele>
      </trkpt>
      <trkpt lat="43.19807" lon="1.00797">
        <ele>266.9</ele>
      </trkpt>
      <trkpt lat="43.1976" lon="1.00865">
        <ele>266</ele>
      </trkpt>
      <trkpt lat="43.19745" lon="1.00895">
        <ele>266</ele>
      </trkpt>
      <trkpt lat="43.19739" lon="1.00903">
        <ele>266</ele>
      </trkpt>
      <trkpt lat="43.1974" lon="1.00912">
        <ele>266</ele>
      </trkpt>
      <trkpt lat="43.19731" lon="1.00988">
        <ele>265.6</ele>
      </trkpt>
      <trkpt lat="43.19732" lon="1.00997">
        <ele>265.4</ele>
      </trkpt>
      <trkpt lat="43.19732" lon="1.01">
        <ele>265.4</ele>
      </trkpt>
      <trkpt lat="43.19733" lon="1.01074">
        <ele>266</ele>
      </trkpt>
      <trkpt lat="43.19735" lon="1.01174">
        <ele>265.9</ele>
      </trkpt>
      <trkpt lat="43.1973" lon="1.01179">
        <ele>265.7</ele>
      </trkpt>
      <trkpt lat="43.19694" lon="1.01214">
        <ele>265</ele>
      </trkpt>
      <trkpt lat="43.19686" lon="1.01224">
        <ele>264.7</ele>
      </trkpt>
      <trkpt lat="43.19684" lon="1.01223">
        <ele>264.6</ele>
      </trkpt>
      <trkpt lat="43.19682" lon="1.01224">
        <ele>264.5</ele>
      </trkpt>
      <trkpt lat="43.19681" lon="1.01226">
        <ele>264.4</ele>
      </trkpt>
      <trkpt lat="43.19604" lon="1.01216">
        <ele>264.8</ele>
      </trkpt>
      <trkpt lat="43.19546" lon="1.01198">
        <ele>264.9</ele>
      </trkpt>
      <trkpt lat="43.19538" lon="1.01196">
        <ele>264.9</ele>
      </trkpt>
      <trkpt lat="43.19535" lon="1.01195">
        <ele>265</ele>
      </trkpt>
      <trkpt lat="43.19523" lon="1.01191">
        <ele>264.7</ele>
      </trkpt>
      <trkpt lat="43.19487" lon="1.01179">
        <ele>263.6</ele>
      </trkpt>
      <trkpt lat="43.19474" lon="1.01172">
        <ele>263.7</ele>
      </trkpt>
      <trkpt lat="43.19417" lon="1.0112">
        <ele>263.4</ele>
      </trkpt>
      <trkpt lat="43.19402" lon="1.0111">
        <ele>263</ele>
      </trkpt>
      <trkpt lat="43.19378" lon="1.01097">
        <ele>261.9</ele>
      </trkpt>
      <trkpt lat="43.19302" lon="1.01056">
        <ele>259.9</ele>
      </trkpt>
      <trkpt lat="43.1924" lon="1.01021">
        <ele>259.8</ele>
      </trkpt>
      <trkpt lat="43.19179" lon="1.00989">
        <ele>260</ele>
      </trkpt>
      <trkpt lat="43.19169" lon="1.00986">
        <ele>260</ele>
      </trkpt>
      <trkpt lat="43.19155" lon="1.00983">
        <ele>260</ele>
      </trkpt>
      <trkpt lat="43.19118" lon="1.00975">
        <ele>260.5</ele>
      </trkpt>
      <trkpt lat="43.19095" lon="1.00977">
        <ele>260.3</ele>
      </trkpt>
      <trkpt lat="43.19074" lon="1.00984">
        <ele>259.2</ele>
      </trkpt>
      <trkpt lat="43.19042" lon="1.00999">
        <ele>259.9</ele>
      </trkpt>
      <trkpt lat="43.19015" lon="1.01015">
        <ele>258.1</ele>
      </trkpt>
      <trkpt lat="43.19014" lon="1.01028">
        <ele>256.5</ele>
      </trkpt>
      <trkpt lat="43.19154" lon="1.01615">
        <ele>253.9</ele>
      </trkpt>
      <trkpt lat="43.19157" lon="1.01635">
        <ele>253.4</ele>
      </trkpt>
      <trkpt lat="43.19155" lon="1.01653">
        <ele>252.6</ele>
      </trkpt>
      <trkpt lat="43.1915" lon="1.01667">
        <ele>252</ele>
      </trkpt>
      <trkpt lat="43.19142" lon="1.01677">
        <ele>251.8</ele>
      </trkpt>
      <trkpt lat="43.19132" lon="1.01683">
        <ele>251.2</ele>
      </trkpt>
      <trkpt lat="43.19078" lon="1.01705">
        <ele>249.9</ele>
      </trkpt>
      <trkpt lat="43.19057" lon="1.01713">
        <ele>249.4</ele>
      </trkpt>
    </trkseg>
  </trk>
</gpx>